<?xml version="1.0" encoding="UTF-8"?>
<gpx version="1.0" creator="Trackator" xmlns:xsi="http://www.w3.org/2001/XMLSchema-instance" xmlns="http://www.topografix.com/GPX/1/0" xmlns:topografix="http://www.topografix.com/GPX/Private/TopoGrafix/0/1" xsi:schemaLocation="http://www.topografix.com/GPX/1/0 http://www.topografix.com/GPX/1/0/gpx.xsd http://www.topografix.com/GPX/Private/TopoGrafix/0/1 http://www.topografix.com/GPX/Private/TopoGrafix/0/1/topografix.xsd">
<metadata>
<link href="http://www.trackator.com">
<text>Trackator</text>
</link>
</metadata>
<time>2017-03-01T:12:32Z</time>
<trk>
<name>Track: </name>
<desc>Hiking</desc>
<trkseg>
<trkpt lat="40.640355" lon="-3.1575783333333334">
<ele>770</ele>
<time>2017-03-01T:12:32Z</time>
</trkpt>
<trkpt lat="40.640415" lon="-3.1576083333333336">
<ele>764</ele>
<time>2017-03-01T09:12:35Z</time>
</trkpt>
<trkpt lat="40.64038666666667" lon="-3.1576033333333338">
<ele>762</ele>
<time>2017-03-01T09:12:37Z</time>
</trkpt>
<trkpt lat="40.640366666666665" lon="-3.1575733333333336">
<ele>764</ele>
<time>2017-03-01T09:12:39Z</time>
</trkpt>
<trkpt lat="40.64036333333333" lon="-3.157546666666667">
<ele>764</ele>
<time>2017-03-01T09:12:42Z</time>
</trkpt>
<trkpt lat="40.640366666666665" lon="-3.15754">
<ele>764</ele>
<time>2017-03-01T09:12:44Z</time>
</trkpt>
<trkpt lat="40.640364999999996" lon="-3.157525">
<ele>764</ele>
<time>2017-03-01T09:12:46Z</time>
</trkpt>
<trkpt lat="40.64039666666667" lon="-3.157516666666667">
<ele>764</ele>
<time>2017-03-01T09:12:48Z</time>
</trkpt>
<trkpt lat="40.64041666666667" lon="-3.1575116666666663">
<ele>763</ele>
<time>2017-03-01T09:12:50Z</time>
</trkpt>
<trkpt lat="40.64043" lon="-3.1575183333333334">
<ele>763</ele>
<time>2017-03-01T09:12:52Z</time>
</trkpt>
<trkpt lat="40.64044666666667" lon="-3.1575266666666666">
<ele>763</ele>
<time>2017-03-01T09:12:54Z</time>
</trkpt>
<trkpt lat="40.64046333333333" lon="-3.1575133333333336">
<ele>761</ele>
<time>2017-03-01T09:12:56Z</time>
</trkpt>
<trkpt lat="40.64046166666667" lon="-3.157493333333333">
<ele>761</ele>
<time>2017-03-01T09:12:58Z</time>
</trkpt>
<trkpt lat="40.64046" lon="-3.1574699999999996">
<ele>760</ele>
<time>2017-03-01T09:13:00Z</time>
</trkpt>
<trkpt lat="40.64046666666666" lon="-3.157448333333334">
<ele>760</ele>
<time>2017-03-01T09:13:02Z</time>
</trkpt>
<trkpt lat="40.64050833333333" lon="-3.1574249999999995">
<ele>759</ele>
<time>2017-03-01T09:13:04Z</time>
</trkpt>
<trkpt lat="40.640546666666665" lon="-3.157403333333334">
<ele>759</ele>
<time>2017-03-01T09:13:06Z</time>
</trkpt>
<trkpt lat="40.64057666666667" lon="-3.157385">
<ele>759</ele>
<time>2017-03-01T09:13:08Z</time>
</trkpt>
<trkpt lat="40.640618333333336" lon="-3.157345">
<ele>759</ele>
<time>2017-03-01T09:13:10Z</time>
</trkpt>
<trkpt lat="40.640681666666666" lon="-3.1573050000000005">
<ele>758</ele>
<time>2017-03-01T09:13:12Z</time>
</trkpt>
<trkpt lat="40.64070666666667" lon="-3.157256666666667">
<ele>757</ele>
<time>2017-03-01T09:13:14Z</time>
</trkpt>
<trkpt lat="40.64070166666667" lon="-3.157226666666667">
<ele>757</ele>
<time>2017-03-01T09:13:16Z</time>
</trkpt>
<trkpt lat="40.64069666666667" lon="-3.157203333333334">
<ele>756</ele>
<time>2017-03-01T09:13:18Z</time>
</trkpt>
<trkpt lat="40.64069333333334" lon="-3.1571783333333334">
<ele>755</ele>
<time>2017-03-01T09:13:20Z</time>
</trkpt>
<trkpt lat="40.640705000000004" lon="-3.1571833333333332">
<ele>754</ele>
<time>2017-03-01T09:13:22Z</time>
</trkpt>
<trkpt lat="40.64069333333334" lon="-3.1571866666666666">
<ele>753</ele>
<time>2017-03-01T09:13:24Z</time>
</trkpt>
<trkpt lat="40.640685" lon="-3.157175">
<ele>752</ele>
<time>2017-03-01T09:13:26Z</time>
</trkpt>
<trkpt lat="40.64068666666667" lon="-3.157168333333333">
<ele>751</ele>
<time>2017-03-01T09:13:28Z</time>
</trkpt>
<trkpt lat="40.64068833333333" lon="-3.1571183333333335">
<ele>750</ele>
<time>2017-03-01T09:13:30Z</time>
</trkpt>
<trkpt lat="40.64069166666666" lon="-3.157048333333334">
<ele>749</ele>
<time>2017-03-01T09:13:32Z</time>
</trkpt>
<trkpt lat="40.64071" lon="-3.157003333333334">
<ele>749</ele>
<time>2017-03-01T09:13:34Z</time>
</trkpt>
<trkpt lat="40.64070666666667" lon="-3.1569700000000003">
<ele>748</ele>
<time>2017-03-01T09:13:36Z</time>
</trkpt>
<trkpt lat="40.64074333333333" lon="-3.15694">
<ele>744</ele>
<time>2017-03-01T09:13:38Z</time>
</trkpt>
<trkpt lat="40.640750000000004" lon="-3.1569349999999994">
<ele>744</ele>
<time>2017-03-01T09:13:40Z</time>
</trkpt>
<trkpt lat="40.640769999999996" lon="-3.156925">
<ele>743</ele>
<time>2017-03-01T09:13:42Z</time>
</trkpt>
<trkpt lat="40.640775" lon="-3.1569050000000005">
<ele>742</ele>
<time>2017-03-01T09:13:44Z</time>
</trkpt>
<trkpt lat="40.64076166666667" lon="-3.1568916666666667">
<ele>742</ele>
<time>2017-03-01T09:13:46Z</time>
</trkpt>
<trkpt lat="40.64073166666667" lon="-3.1568533333333333">
<ele>741</ele>
<time>2017-03-01T09:13:48Z</time>
</trkpt>
<trkpt lat="40.640685" lon="-3.1567916666666673">
<ele>741</ele>
<time>2017-03-01T09:13:50Z</time>
</trkpt>
<trkpt lat="40.640678333333334" lon="-3.1567483333333333">
<ele>741</ele>
<time>2017-03-01T09:13:52Z</time>
</trkpt>
<trkpt lat="40.640660000000004" lon="-3.1567200000000004">
<ele>741</ele>
<time>2017-03-01T09:13:54Z</time>
</trkpt>
<trkpt lat="40.64064333333333" lon="-3.1567149999999997">
<ele>741</ele>
<time>2017-03-01T09:13:56Z</time>
</trkpt>
<trkpt lat="40.64063833333333" lon="-3.1567200000000004">
<ele>742</ele>
<time>2017-03-01T09:13:58Z</time>
</trkpt>
<trkpt lat="40.64059833333333" lon="-3.156645">
<ele>742</ele>
<time>2017-03-01T09:14:00Z</time>
</trkpt>
<trkpt lat="40.640591666666666" lon="-3.156603333333334">
<ele>743</ele>
<time>2017-03-01T09:14:02Z</time>
</trkpt>
<trkpt lat="40.640595" lon="-3.1565716666666663">
<ele>743</ele>
<time>2017-03-01T09:14:04Z</time>
</trkpt>
<trkpt lat="40.640589999999996" lon="-3.156523333333333">
<ele>743</ele>
<time>2017-03-01T09:14:06Z</time>
</trkpt>
<trkpt lat="40.640605" lon="-3.1565">
<ele>742</ele>
<time>2017-03-01T09:14:08Z</time>
</trkpt>
<trkpt lat="40.640633333333334" lon="-3.156508333333333">
<ele>741</ele>
<time>2017-03-01T09:14:10Z</time>
</trkpt>
<trkpt lat="40.64064666666666" lon="-3.156516666666667">
<ele>741</ele>
<time>2017-03-01T09:14:12Z</time>
</trkpt>
<trkpt lat="40.64065333333333" lon="-3.1565416666666666">
<ele>740</ele>
<time>2017-03-01T09:14:14Z</time>
</trkpt>
<trkpt lat="40.64068666666667" lon="-3.156558333333334">
<ele>739</ele>
<time>2017-03-01T09:14:16Z</time>
</trkpt>
<trkpt lat="40.64069333333334" lon="-3.1565">
<ele>737</ele>
<time>2017-03-01T09:14:18Z</time>
</trkpt>
<trkpt lat="40.64069333333334" lon="-3.156445">
<ele>735</ele>
<time>2017-03-01T09:14:20Z</time>
</trkpt>
<trkpt lat="40.640721666666664" lon="-3.156398333333333">
<ele>735</ele>
<time>2017-03-01T09:14:22Z</time>
</trkpt>
<trkpt lat="40.640695" lon="-3.1563933333333334">
<ele>734</ele>
<time>2017-03-01T09:14:24Z</time>
</trkpt>
<trkpt lat="40.640679999999996" lon="-3.1563716666666664">
<ele>734</ele>
<time>2017-03-01T09:14:26Z</time>
</trkpt>
<trkpt lat="40.640675" lon="-3.15636">
<ele>733</ele>
<time>2017-03-01T09:14:28Z</time>
</trkpt>
<trkpt lat="40.640634999999996" lon="-3.1563799999999995">
<ele>733</ele>
<time>2017-03-01T09:14:30Z</time>
</trkpt>
<trkpt lat="40.64060666666667" lon="-3.1563749999999997">
<ele>734</ele>
<time>2017-03-01T09:14:32Z</time>
</trkpt>
<trkpt lat="40.64059833333333" lon="-3.1563733333333337">
<ele>735</ele>
<time>2017-03-01T09:14:34Z</time>
</trkpt>
<trkpt lat="40.640589999999996" lon="-3.156361666666667">
<ele>736</ele>
<time>2017-03-01T09:14:36Z</time>
</trkpt>
<trkpt lat="40.640616666666666" lon="-3.1563566666666665">
<ele>735</ele>
<time>2017-03-01T09:14:38Z</time>
</trkpt>
<trkpt lat="40.640631666666664" lon="-3.156353333333333">
<ele>735</ele>
<time>2017-03-01T09:14:40Z</time>
</trkpt>
<trkpt lat="40.64064166666667" lon="-3.156323333333333">
<ele>735</ele>
<time>2017-03-01T09:14:42Z</time>
</trkpt>
<trkpt lat="40.640625" lon="-3.1563200000000005">
<ele>734</ele>
<time>2017-03-01T09:14:44Z</time>
</trkpt>
<trkpt lat="40.64061" lon="-3.1563066666666666">
<ele>733</ele>
<time>2017-03-01T09:14:46Z</time>
</trkpt>
<trkpt lat="40.64061" lon="-3.1563066666666666">
<ele>733</ele>
<time>2017-03-01T09:14:48Z</time>
</trkpt>
<trkpt lat="40.64061" lon="-3.1562766666666664">
<ele>732</ele>
<time>2017-03-01T09:14:50Z</time>
</trkpt>
<trkpt lat="40.640605" lon="-3.1562249999999996">
<ele>732</ele>
<time>2017-03-01T09:14:52Z</time>
</trkpt>
<trkpt lat="40.64060833333333" lon="-3.156183333333333">
<ele>732</ele>
<time>2017-03-01T09:14:54Z</time>
</trkpt>
<trkpt lat="40.64062833333333" lon="-3.1561433333333335">
<ele>733</ele>
<time>2017-03-01T09:14:56Z</time>
</trkpt>
<trkpt lat="40.640655" lon="-3.1561066666666666">
<ele>734</ele>
<time>2017-03-01T09:14:58Z</time>
</trkpt>
<trkpt lat="40.640660000000004" lon="-3.156101666666667">
<ele>734</ele>
<time>2017-03-01T09:15:00Z</time>
</trkpt>
<trkpt lat="40.64065166666667" lon="-3.156073333333333">
<ele>734</ele>
<time>2017-03-01T09:15:02Z</time>
</trkpt>
<trkpt lat="40.64065666666667" lon="-3.156028333333333">
<ele>734</ele>
<time>2017-03-01T09:15:04Z</time>
</trkpt>
<trkpt lat="40.64067333333333" lon="-3.1559799999999996">
<ele>734</ele>
<time>2017-03-01T09:15:06Z</time>
</trkpt>
<trkpt lat="40.640679999999996" lon="-3.1559350000000004">
<ele>734</ele>
<time>2017-03-01T09:15:08Z</time>
</trkpt>
<trkpt lat="40.64067333333333" lon="-3.155908333333333">
<ele>735</ele>
<time>2017-03-01T09:15:10Z</time>
</trkpt>
<trkpt lat="40.64065666666667" lon="-3.155895">
<ele>736</ele>
<time>2017-03-01T09:15:12Z</time>
</trkpt>
<trkpt lat="40.640631666666664" lon="-3.155888333333333">
<ele>737</ele>
<time>2017-03-01T09:15:14Z</time>
</trkpt>
<trkpt lat="40.640631666666664" lon="-3.155871666666667">
<ele>739</ele>
<time>2017-03-01T09:15:16Z</time>
</trkpt>
<trkpt lat="40.64063" lon="-3.155865">
<ele>740</ele>
<time>2017-03-01T09:15:18Z</time>
</trkpt>
<trkpt lat="40.64062" lon="-3.155851666666666">
<ele>742</ele>
<time>2017-03-01T09:15:20Z</time>
</trkpt>
<trkpt lat="40.640633333333334" lon="-3.1558333333333337">
<ele>744</ele>
<time>2017-03-01T09:15:22Z</time>
</trkpt>
<trkpt lat="40.64064333333333" lon="-3.155805">
<ele>746</ele>
<time>2017-03-01T09:15:24Z</time>
</trkpt>
<trkpt lat="40.640663333333336" lon="-3.155755">
<ele>748</ele>
<time>2017-03-01T09:15:26Z</time>
</trkpt>
<trkpt lat="40.640655" lon="-3.1556849999999996">
<ele>748</ele>
<time>2017-03-01T09:15:28Z</time>
</trkpt>
<trkpt lat="40.640655" lon="-3.1556399999999996">
<ele>750</ele>
<time>2017-03-01T09:15:30Z</time>
</trkpt>
<trkpt lat="40.64065166666667" lon="-3.1556083333333333">
<ele>750</ele>
<time>2017-03-01T09:15:32Z</time>
</trkpt>
<trkpt lat="40.640721666666664" lon="-3.1556750000000005">
<ele>752</ele>
<time>2017-03-01T09:15:34Z</time>
</trkpt>
<trkpt lat="40.640811666666664" lon="-3.1556566666666668">
<ele>751</ele>
<time>2017-03-01T09:15:36Z</time>
</trkpt>
<trkpt lat="40.64078" lon="-3.1556249999999997">
<ele>748</ele>
<time>2017-03-01T09:15:38Z</time>
</trkpt>
<trkpt lat="40.64077666666667" lon="-3.155576666666667">
<ele>748</ele>
<time>2017-03-01T09:15:40Z</time>
</trkpt>
<trkpt lat="40.640755" lon="-3.1555350000000004">
<ele>747</ele>
<time>2017-03-01T09:15:42Z</time>
</trkpt>
<trkpt lat="40.64071333333333" lon="-3.155491666666667">
<ele>747</ele>
<time>2017-03-01T09:15:44Z</time>
</trkpt>
<trkpt lat="40.64070166666667" lon="-3.1554216666666672">
<ele>747</ele>
<time>2017-03-01T09:15:46Z</time>
</trkpt>
<trkpt lat="40.640708333333336" lon="-3.155361666666667">
<ele>747</ele>
<time>2017-03-01T09:15:48Z</time>
</trkpt>
<trkpt lat="40.64069666666667" lon="-3.1552900000000004">
<ele>746</ele>
<time>2017-03-01T09:15:50Z</time>
</trkpt>
<trkpt lat="40.640685" lon="-3.1552583333333333">
<ele>744</ele>
<time>2017-03-01T09:15:52Z</time>
</trkpt>
<trkpt lat="40.640679999999996" lon="-3.155233333333334">
<ele>743</ele>
<time>2017-03-01T09:15:54Z</time>
</trkpt>
<trkpt lat="40.640679999999996" lon="-3.1552233333333333">
<ele>741</ele>
<time>2017-03-01T09:15:56Z</time>
</trkpt>
<trkpt lat="40.640663333333336" lon="-3.1551799999999997">
<ele>739</ele>
<time>2017-03-01T09:15:58Z</time>
</trkpt>
<trkpt lat="40.64062833333333" lon="-3.155115">
<ele>738</ele>
<time>2017-03-01T09:16:00Z</time>
</trkpt>
<trkpt lat="40.64060666666667" lon="-3.1550549999999995">
<ele>738</ele>
<time>2017-03-01T09:16:02Z</time>
</trkpt>
<trkpt lat="40.6406" lon="-3.1550266666666666">
<ele>737</ele>
<time>2017-03-01T09:16:04Z</time>
</trkpt>
<trkpt lat="40.64060333333334" lon="-3.1550016666666663">
<ele>737</ele>
<time>2017-03-01T09:16:06Z</time>
</trkpt>
<trkpt lat="40.64060166666666" lon="-3.1549666666666667">
<ele>737</ele>
<time>2017-03-01T09:16:08Z</time>
</trkpt>
<trkpt lat="40.64059833333333" lon="-3.15493">
<ele>737</ele>
<time>2017-03-01T09:16:10Z</time>
</trkpt>
<trkpt lat="40.640585" lon="-3.15492">
<ele>737</ele>
<time>2017-03-01T09:16:12Z</time>
</trkpt>
<trkpt lat="40.640595" lon="-3.1548633333333336">
<ele>736</ele>
<time>2017-03-01T09:16:14Z</time>
</trkpt>
<trkpt lat="40.64059833333333" lon="-3.1548466666666664">
<ele>736</ele>
<time>2017-03-01T09:16:16Z</time>
</trkpt>
<trkpt lat="40.640616666666666" lon="-3.154835">
<ele>734</ele>
<time>2017-03-01T09:16:18Z</time>
</trkpt>
<trkpt lat="40.640616666666666" lon="-3.154775">
<ele>733</ele>
<time>2017-03-01T09:16:20Z</time>
</trkpt>
<trkpt lat="40.64062" lon="-3.1547449999999997">
<ele>732</ele>
<time>2017-03-01T09:16:22Z</time>
</trkpt>
<trkpt lat="40.640655" lon="-3.1547583333333336">
<ele>732</ele>
<time>2017-03-01T09:16:24Z</time>
</trkpt>
<trkpt lat="40.640750000000004" lon="-3.1547883333333337">
<ele>732</ele>
<time>2017-03-01T09:16:26Z</time>
</trkpt>
<trkpt lat="40.64077666666667" lon="-3.154783333333333">
<ele>730</ele>
<time>2017-03-01T09:16:28Z</time>
</trkpt>
<trkpt lat="40.640735" lon="-3.1547716666666665">
<ele>729</ele>
<time>2017-03-01T09:16:30Z</time>
</trkpt>
<trkpt lat="40.640665" lon="-3.154785">
<ele>730</ele>
<time>2017-03-01T09:16:32Z</time>
</trkpt>
<trkpt lat="40.640685" lon="-3.15476">
<ele>730</ele>
<time>2017-03-01T09:16:34Z</time>
</trkpt>
<trkpt lat="40.640703333333335" lon="-3.1547583333333336">
<ele>730</ele>
<time>2017-03-01T09:16:36Z</time>
</trkpt>
<trkpt lat="40.64071166666667" lon="-3.1547633333333334">
<ele>730</ele>
<time>2017-03-01T09:16:38Z</time>
</trkpt>
<trkpt lat="40.64069666666667" lon="-3.154755">
<ele>730</ele>
<time>2017-03-01T09:16:40Z</time>
</trkpt>
<trkpt lat="40.640753333333336" lon="-3.154811666666667">
<ele>729</ele>
<time>2017-03-01T09:16:42Z</time>
</trkpt>
<trkpt lat="40.640765" lon="-3.15485">
<ele>729</ele>
<time>2017-03-01T09:16:44Z</time>
</trkpt>
<trkpt lat="40.640771666666666" lon="-3.1548916666666664">
<ele>729</ele>
<time>2017-03-01T09:16:46Z</time>
</trkpt>
<trkpt lat="40.640771666666666" lon="-3.15491">
<ele>729</ele>
<time>2017-03-01T09:16:48Z</time>
</trkpt>
<trkpt lat="40.64076333333333" lon="-3.154925">
<ele>729</ele>
<time>2017-03-01T09:16:50Z</time>
</trkpt>
<trkpt lat="40.640723333333334" lon="-3.1549416666666663">
<ele>729</ele>
<time>2017-03-01T09:16:52Z</time>
</trkpt>
<trkpt lat="40.64067333333333" lon="-3.1549850000000004">
<ele>730</ele>
<time>2017-03-01T09:16:54Z</time>
</trkpt>
<trkpt lat="40.64066166666667" lon="-3.154978333333333">
<ele>731</ele>
<time>2017-03-01T09:16:56Z</time>
</trkpt>
<trkpt lat="40.64064" lon="-3.1549650000000002">
<ele>731</ele>
<time>2017-03-01T09:16:58Z</time>
</trkpt>
<trkpt lat="40.640618333333336" lon="-3.1549583333333335">
<ele>732</ele>
<time>2017-03-01T09:17:00Z</time>
</trkpt>
<trkpt lat="40.64060166666666" lon="-3.1549633333333333">
<ele>734</ele>
<time>2017-03-01T09:17:02Z</time>
</trkpt>
<trkpt lat="40.640575" lon="-3.154953333333333">
<ele>734</ele>
<time>2017-03-01T09:17:04Z</time>
</trkpt>
<trkpt lat="40.64055833333334" lon="-3.15496">
<ele>735</ele>
<time>2017-03-01T09:17:06Z</time>
</trkpt>
<trkpt lat="40.64049833333333" lon="-3.1550116666666668">
<ele>736</ele>
<time>2017-03-01T09:17:08Z</time>
</trkpt>
<trkpt lat="40.64047333333333" lon="-3.1550183333333335">
<ele>736</ele>
<time>2017-03-01T09:17:10Z</time>
</trkpt>
<trkpt lat="40.640454999999996" lon="-3.15502">
<ele>737</ele>
<time>2017-03-01T09:17:12Z</time>
</trkpt>
<trkpt lat="40.640425" lon="-3.155041666666667">
<ele>738</ele>
<time>2017-03-01T09:17:14Z</time>
</trkpt>
<trkpt lat="40.640388333333334" lon="-3.1550583333333333">
<ele>739</ele>
<time>2017-03-01T09:17:16Z</time>
</trkpt>
<trkpt lat="40.640323333333335" lon="-3.1550633333333336">
<ele>738</ele>
<time>2017-03-01T09:17:18Z</time>
</trkpt>
<trkpt lat="40.640295" lon="-3.1550683333333334">
<ele>738</ele>
<time>2017-03-01T09:17:20Z</time>
</trkpt>
<trkpt lat="40.64026666666667" lon="-3.15508">
<ele>738</ele>
<time>2017-03-01T09:17:22Z</time>
</trkpt>
<trkpt lat="40.64021833333334" lon="-3.1551033333333334">
<ele>739</ele>
<time>2017-03-01T09:17:24Z</time>
</trkpt>
<trkpt lat="40.64017" lon="-3.1551449999999996">
<ele>740</ele>
<time>2017-03-01T09:17:26Z</time>
</trkpt>
<trkpt lat="40.64015833333334" lon="-3.1551433333333336">
<ele>741</ele>
<time>2017-03-01T09:17:28Z</time>
</trkpt>
<trkpt lat="40.640143333333334" lon="-3.155123333333333">
<ele>741</ele>
<time>2017-03-01T09:17:30Z</time>
</trkpt>
<trkpt lat="40.640098333333334" lon="-3.1551033333333334">
<ele>742</ele>
<time>2017-03-01T09:17:32Z</time>
</trkpt>
<trkpt lat="40.63992666666666" lon="-3.154711666666666">
<ele>740</ele>
<time>2017-03-01T09:17:34Z</time>
</trkpt>
<trkpt lat="40.639825" lon="-3.154598333333333">
<ele>733</ele>
<time>2017-03-01T09:17:36Z</time>
</trkpt>
<trkpt lat="40.63974833333334" lon="-3.1547050000000003">
<ele>733</ele>
<time>2017-03-01T09:17:38Z</time>
</trkpt>
<trkpt lat="40.63973" lon="-3.1547883333333337">
<ele>733</ele>
<time>2017-03-01T09:17:40Z</time>
</trkpt>
<trkpt lat="40.64021" lon="-3.154815">
<ele>732</ele>
<time>2017-03-01T09:17:44Z</time>
</trkpt>
<trkpt lat="40.64021666666667" lon="-3.1547783333333332">
<ele>733</ele>
<time>2017-03-01T09:17:46Z</time>
</trkpt>
<trkpt lat="40.64020666666667" lon="-3.1548249999999998">
<ele>733</ele>
<time>2017-03-01T09:17:48Z</time>
</trkpt>
<trkpt lat="40.64017666666667" lon="-3.1549050000000003">
<ele>733</ele>
<time>2017-03-01T09:17:50Z</time>
</trkpt>
<trkpt lat="40.640163333333334" lon="-3.1549449999999997">
<ele>733</ele>
<time>2017-03-01T09:17:52Z</time>
</trkpt>
<trkpt lat="40.64012833333334" lon="-3.1550549999999995">
<ele>733</ele>
<time>2017-03-01T09:17:54Z</time>
</trkpt>
<trkpt lat="40.640096666666665" lon="-3.155056666666667">
<ele>734</ele>
<time>2017-03-01T09:17:56Z</time>
</trkpt>
<trkpt lat="40.640096666666665" lon="-3.155056666666667">
<ele>734</ele>
<time>2017-03-01T09:17:58Z</time>
</trkpt>
<trkpt lat="40.640049999999995" lon="-3.1550933333333337">
<ele>735</ele>
<time>2017-03-01T09:18:00Z</time>
</trkpt>
<trkpt lat="40.640045" lon="-3.1551133333333334">
<ele>737</ele>
<time>2017-03-01T09:18:02Z</time>
</trkpt>
<trkpt lat="40.64001833333334" lon="-3.1551266666666664">
<ele>738</ele>
<time>2017-03-01T09:18:04Z</time>
</trkpt>
<trkpt lat="40.64001" lon="-3.1551416666666663">
<ele>740</ele>
<time>2017-03-01T09:18:06Z</time>
</trkpt>
<trkpt lat="40.63999333333334" lon="-3.1551666666666667">
<ele>741</ele>
<time>2017-03-01T09:18:08Z</time>
</trkpt>
<trkpt lat="40.63997333333334" lon="-3.1551866666666664">
<ele>742</ele>
<time>2017-03-01T09:18:10Z</time>
</trkpt>
<trkpt lat="40.639963333333334" lon="-3.155196666666667">
<ele>743</ele>
<time>2017-03-01T09:18:12Z</time>
</trkpt>
<trkpt lat="40.639955" lon="-3.155206666666667">
<ele>744</ele>
<time>2017-03-01T09:18:14Z</time>
</trkpt>
<trkpt lat="40.63993666666667" lon="-3.155205">
<ele>745</ele>
<time>2017-03-01T09:18:16Z</time>
</trkpt>
<trkpt lat="40.639925" lon="-3.1552216666666673">
<ele>745</ele>
<time>2017-03-01T09:18:18Z</time>
</trkpt>
<trkpt lat="40.639903333333336" lon="-3.155251666666666">
<ele>745</ele>
<time>2017-03-01T09:18:20Z</time>
</trkpt>
<trkpt lat="40.63989166666667" lon="-3.1552533333333335">
<ele>744</ele>
<time>2017-03-01T09:18:22Z</time>
</trkpt>
<trkpt lat="40.63988833333334" lon="-3.1552533333333335">
<ele>744</ele>
<time>2017-03-01T09:18:24Z</time>
</trkpt>
<trkpt lat="40.63988833333334" lon="-3.1552533333333335">
<ele>744</ele>
<time>2017-03-01T09:18:26Z</time>
</trkpt>
<trkpt lat="40.639829999999996" lon="-3.1552666666666664">
<ele>743</ele>
<time>2017-03-01T09:18:28Z</time>
</trkpt>
<trkpt lat="40.639808333333335" lon="-3.1552099999999994">
<ele>742</ele>
<time>2017-03-01T09:18:30Z</time>
</trkpt>
<trkpt lat="40.63979500000001" lon="-3.1552099999999994">
<ele>741</ele>
<time>2017-03-01T09:18:32Z</time>
</trkpt>
<trkpt lat="40.639783333333334" lon="-3.1552099999999994">
<ele>741</ele>
<time>2017-03-01T09:18:34Z</time>
</trkpt>
<trkpt lat="40.639783333333334" lon="-3.1552099999999994">
<ele>741</ele>
<time>2017-03-01T09:18:36Z</time>
</trkpt>
<trkpt lat="40.63978" lon="-3.1551266666666664">
<ele>740</ele>
<time>2017-03-01T09:18:38Z</time>
</trkpt>
<trkpt lat="40.639768333333336" lon="-3.1550766666666665">
<ele>741</ele>
<time>2017-03-01T09:18:40Z</time>
</trkpt>
<trkpt lat="40.63974833333334" lon="-3.1550683333333334">
<ele>741</ele>
<time>2017-03-01T09:18:42Z</time>
</trkpt>
<trkpt lat="40.639735" lon="-3.1550816666666663">
<ele>741</ele>
<time>2017-03-01T09:18:44Z</time>
</trkpt>
<trkpt lat="40.63973333333333" lon="-3.1550849999999997">
<ele>742</ele>
<time>2017-03-01T09:18:46Z</time>
</trkpt>
<trkpt lat="40.639718333333334" lon="-3.1551183333333332">
<ele>742</ele>
<time>2017-03-01T09:18:48Z</time>
</trkpt>
<trkpt lat="40.639671666666665" lon="-3.1552166666666666">
<ele>742</ele>
<time>2017-03-01T09:18:50Z</time>
</trkpt>
<trkpt lat="40.63961833333334" lon="-3.1552766666666665">
<ele>742</ele>
<time>2017-03-01T09:18:52Z</time>
</trkpt>
<trkpt lat="40.639525000000006" lon="-3.1553816666666665">
<ele>741</ele>
<time>2017-03-01T09:18:54Z</time>
</trkpt>
<trkpt lat="40.63941166666667" lon="-3.155561666666667">
<ele>742</ele>
<time>2017-03-01T09:18:56Z</time>
</trkpt>
<trkpt lat="40.63941833333333" lon="-3.1555483333333334">
<ele>744</ele>
<time>2017-03-01T09:18:58Z</time>
</trkpt>
<trkpt lat="40.639408333333336" lon="-3.1556033333333335">
<ele>746</ele>
<time>2017-03-01T09:19:00Z</time>
</trkpt>
<trkpt lat="40.63943" lon="-3.155573333333334">
<ele>745</ele>
<time>2017-03-01T09:19:02Z</time>
</trkpt>
<trkpt lat="40.639388333333336" lon="-3.1555633333333333">
<ele>745</ele>
<time>2017-03-01T09:19:04Z</time>
</trkpt>
<trkpt lat="40.63934166666666" lon="-3.1555500000000003">
<ele>746</ele>
<time>2017-03-01T09:19:06Z</time>
</trkpt>
<trkpt lat="40.63929333333333" lon="-3.155531666666667">
<ele>748</ele>
<time>2017-03-01T09:19:08Z</time>
</trkpt>
<trkpt lat="40.639268333333334" lon="-3.1555083333333327">
<ele>748</ele>
<time>2017-03-01T09:19:10Z</time>
</trkpt>
<trkpt lat="40.639253333333336" lon="-3.155491666666667">
<ele>749</ele>
<time>2017-03-01T09:19:12Z</time>
</trkpt>
<trkpt lat="40.639246666666665" lon="-3.1554833333333336">
<ele>749</ele>
<time>2017-03-01T09:19:14Z</time>
</trkpt>
<trkpt lat="40.63925" lon="-3.1554750000000005">
<ele>750</ele>
<time>2017-03-01T09:19:16Z</time>
</trkpt>
<trkpt lat="40.63925" lon="-3.1554750000000005">
<ele>750</ele>
<time>2017-03-01T09:19:18Z</time>
</trkpt>
<trkpt lat="40.63925" lon="-3.1554750000000005">
<ele>750</ele>
<time>2017-03-01T09:19:20Z</time>
</trkpt>
<trkpt lat="40.63925" lon="-3.1554750000000005">
<ele>750</ele>
<time>2017-03-01T09:19:22Z</time>
</trkpt>
<trkpt lat="40.63925" lon="-3.1554750000000005">
<ele>750</ele>
<time>2017-03-01T09:19:24Z</time>
</trkpt>
<trkpt lat="40.639336666666665" lon="-3.1554366666666662">
<ele>748</ele>
<time>2017-03-01T09:19:26Z</time>
</trkpt>
<trkpt lat="40.639325" lon="-3.1554450000000003">
<ele>747</ele>
<time>2017-03-01T09:19:28Z</time>
</trkpt>
<trkpt lat="40.63930333333334" lon="-3.1554766666666665">
<ele>746</ele>
<time>2017-03-01T09:19:30Z</time>
</trkpt>
<trkpt lat="40.639316666666666" lon="-3.1555033333333333">
<ele>746</ele>
<time>2017-03-01T09:19:32Z</time>
</trkpt>
<trkpt lat="40.63930666666667" lon="-3.155546666666667">
<ele>745</ele>
<time>2017-03-01T09:19:34Z</time>
</trkpt>
<trkpt lat="40.639285" lon="-3.15557">
<ele>744</ele>
<time>2017-03-01T09:19:36Z</time>
</trkpt>
<trkpt lat="40.63928333333333" lon="-3.155583333333333">
<ele>743</ele>
<time>2017-03-01T09:19:38Z</time>
</trkpt>
<trkpt lat="40.639275" lon="-3.1555949999999995">
<ele>743</ele>
<time>2017-03-01T09:19:40Z</time>
</trkpt>
<trkpt lat="40.639275" lon="-3.1555949999999995">
<ele>743</ele>
<time>2017-03-01T09:19:42Z</time>
</trkpt>
<trkpt lat="40.639275" lon="-3.1555949999999995">
<ele>743</ele>
<time>2017-03-01T09:19:44Z</time>
</trkpt>
<trkpt lat="40.639275" lon="-3.1555949999999995">
<ele>743</ele>
<time>2017-03-01T09:19:46Z</time>
</trkpt>
<trkpt lat="40.639305" lon="-3.155686666666667">
<ele>740</ele>
<time>2017-03-01T09:19:48Z</time>
</trkpt>
<trkpt lat="40.63931166666667" lon="-3.155716666666667">
<ele>740</ele>
<time>2017-03-01T09:19:50Z</time>
</trkpt>
<trkpt lat="40.639318333333335" lon="-3.1557283333333337">
<ele>739</ele>
<time>2017-03-01T09:19:52Z</time>
</trkpt>
<trkpt lat="40.639325" lon="-3.155738333333333">
<ele>739</ele>
<time>2017-03-01T09:19:54Z</time>
</trkpt>
<trkpt lat="40.639325" lon="-3.155738333333333">
<ele>739</ele>
<time>2017-03-01T09:19:56Z</time>
</trkpt>
<trkpt lat="40.639325" lon="-3.155738333333333">
<ele>739</ele>
<time>2017-03-01T09:19:58Z</time>
</trkpt>
<trkpt lat="40.639325" lon="-3.155738333333333">
<ele>739</ele>
<time>2017-03-01T09:20:00Z</time>
</trkpt>
<trkpt lat="40.639455" lon="-3.155813333333333">
<ele>737</ele>
<time>2017-03-01T09:20:02Z</time>
</trkpt>
<trkpt lat="40.63946333333333" lon="-3.1558249999999997">
<ele>736</ele>
<time>2017-03-01T09:20:04Z</time>
</trkpt>
<trkpt lat="40.63946333333333" lon="-3.1558249999999997">
<ele>736</ele>
<time>2017-03-01T09:20:06Z</time>
</trkpt>
<trkpt lat="40.63946333333333" lon="-3.1558249999999997">
<ele>736</ele>
<time>2017-03-01T09:20:08Z</time>
</trkpt>
<trkpt lat="40.63946333333333" lon="-3.1558249999999997">
<ele>736</ele>
<time>2017-03-01T09:20:10Z</time>
</trkpt>
<trkpt lat="40.63946333333333" lon="-3.1558249999999997">
<ele>736</ele>
<time>2017-03-01T09:20:12Z</time>
</trkpt>
<trkpt lat="40.639525000000006" lon="-3.1557949999999995">
<ele>734</ele>
<time>2017-03-01T09:20:14Z</time>
</trkpt>
<trkpt lat="40.639536666666665" lon="-3.155796666666667">
<ele>734</ele>
<time>2017-03-01T09:20:16Z</time>
</trkpt>
<trkpt lat="40.63954833333333" lon="-3.1557866666666663">
<ele>734</ele>
<time>2017-03-01T09:20:18Z</time>
</trkpt>
<trkpt lat="40.63957333333334" lon="-3.155781666666667">
<ele>734</ele>
<time>2017-03-01T09:20:20Z</time>
</trkpt>
<trkpt lat="40.63959" lon="-3.1557749999999998">
<ele>734</ele>
<time>2017-03-01T09:20:22Z</time>
</trkpt>
<trkpt lat="40.639588333333336" lon="-3.1557716666666664">
<ele>734</ele>
<time>2017-03-01T09:20:24Z</time>
</trkpt>
<trkpt lat="40.63959833333333" lon="-3.1557733333333338">
<ele>734</ele>
<time>2017-03-01T09:20:26Z</time>
</trkpt>
<trkpt lat="40.639633333333336" lon="-3.1557633333333333">
<ele>733</ele>
<time>2017-03-01T09:20:28Z</time>
</trkpt>
<trkpt lat="40.63965666666666" lon="-3.155755">
<ele>733</ele>
<time>2017-03-01T09:20:30Z</time>
</trkpt>
<trkpt lat="40.639718333333334" lon="-3.1558333333333337">
<ele>733</ele>
<time>2017-03-01T09:20:32Z</time>
</trkpt>
<trkpt lat="40.639755" lon="-3.155895">
<ele>732</ele>
<time>2017-03-01T09:20:34Z</time>
</trkpt>
<trkpt lat="40.63966166666667" lon="-3.155843333333333">
<ele>722</ele>
<time>2017-03-01T09:20:36Z</time>
</trkpt>
<trkpt lat="40.63966166666667" lon="-3.155843333333333">
<ele>722</ele>
<time>2017-03-01T09:20:38Z</time>
</trkpt>
<trkpt lat="40.63966166666667" lon="-3.155843333333333">
<ele>722</ele>
<time>2017-03-01T09:20:40Z</time>
</trkpt>
<trkpt lat="40.63966166666667" lon="-3.155843333333333">
<ele>722</ele>
<time>2017-03-01T09:20:42Z</time>
</trkpt>
<trkpt lat="40.63979166666666" lon="-3.1558800000000002">
<ele>676</ele>
<time>2017-03-01T09:20:44Z</time>
</trkpt>
<trkpt lat="40.639825" lon="-3.15594">
<ele>674</ele>
<time>2017-03-01T09:20:46Z</time>
</trkpt>
<trkpt lat="40.639865" lon="-3.1560099999999998">
<ele>675</ele>
<time>2017-03-01T09:20:48Z</time>
</trkpt>
<trkpt lat="40.63984666666667" lon="-3.155916666666667">
<ele>665</ele>
<time>2017-03-01T09:20:50Z</time>
</trkpt>
<trkpt lat="40.639895" lon="-3.1558983333333335">
<ele>661</ele>
<time>2017-03-01T09:20:52Z</time>
</trkpt>
<trkpt lat="40.63990166666667" lon="-3.1559716666666664">
<ele>662</ele>
<time>2017-03-01T09:20:54Z</time>
</trkpt>
<trkpt lat="40.639914999999995" lon="-3.155991666666667">
<ele>665</ele>
<time>2017-03-01T09:20:56Z</time>
</trkpt>
<trkpt lat="40.63993833333333" lon="-3.1559250000000003">
<ele>669</ele>
<time>2017-03-01T09:20:58Z</time>
</trkpt>
<trkpt lat="40.639963333333334" lon="-3.1559133333333333">
<ele>670</ele>
<time>2017-03-01T09:21:00Z</time>
</trkpt>
<trkpt lat="40.63996833333333" lon="-3.155936666666667">
<ele>673</ele>
<time>2017-03-01T09:21:02Z</time>
</trkpt>
<trkpt lat="40.63999166666667" lon="-3.1559283333333337">
<ele>675</ele>
<time>2017-03-01T09:21:04Z</time>
</trkpt>
<trkpt lat="40.640004999999995" lon="-3.1558483333333336">
<ele>680</ele>
<time>2017-03-01T09:21:06Z</time>
</trkpt>
<trkpt lat="40.64001" lon="-3.1558166666666665">
<ele>683</ele>
<time>2017-03-01T09:21:08Z</time>
</trkpt>
<trkpt lat="40.64001" lon="-3.1558166666666665">
<ele>683</ele>
<time>2017-03-01T09:21:10Z</time>
</trkpt>
<trkpt lat="40.64003" lon="-3.1557883333333336">
<ele>688</ele>
<time>2017-03-01T09:21:12Z</time>
</trkpt>
<trkpt lat="40.640053333333334" lon="-3.1557616666666672">
<ele>691</ele>
<time>2017-03-01T09:21:14Z</time>
</trkpt>
<trkpt lat="40.64008333333334" lon="-3.155746666666667">
<ele>695</ele>
<time>2017-03-01T09:21:16Z</time>
</trkpt>
<trkpt lat="40.6401" lon="-3.155738333333333">
<ele>697</ele>
<time>2017-03-01T09:21:18Z</time>
</trkpt>
<trkpt lat="40.64010833333334" lon="-3.155745">
<ele>700</ele>
<time>2017-03-01T09:21:20Z</time>
</trkpt>
<trkpt lat="40.64010833333334" lon="-3.155745">
<ele>700</ele>
<time>2017-03-01T09:21:22Z</time>
</trkpt>
<trkpt lat="40.64010833333334" lon="-3.155745">
<ele>700</ele>
<time>2017-03-01T09:21:24Z</time>
</trkpt>
<trkpt lat="40.64014833333333" lon="-3.155745">
<ele>703</ele>
<time>2017-03-01T09:21:26Z</time>
</trkpt>
<trkpt lat="40.64017" lon="-3.1557533333333327">
<ele>703</ele>
<time>2017-03-01T09:21:28Z</time>
</trkpt>
<trkpt lat="40.64019" lon="-3.155746666666667">
<ele>703</ele>
<time>2017-03-01T09:21:30Z</time>
</trkpt>
<trkpt lat="40.64021" lon="-3.155733333333333">
<ele>703</ele>
<time>2017-03-01T09:21:32Z</time>
</trkpt>
<trkpt lat="40.640215" lon="-3.1557266666666663">
<ele>704</ele>
<time>2017-03-01T09:21:34Z</time>
</trkpt>
<trkpt lat="40.64022166666667" lon="-3.155723333333333">
<ele>704</ele>
<time>2017-03-01T09:21:36Z</time>
</trkpt>
<trkpt lat="40.64022166666667" lon="-3.155723333333333">
<ele>704</ele>
<time>2017-03-01T09:21:38Z</time>
</trkpt>
<trkpt lat="40.640256666666666" lon="-3.155696666666666">
<ele>704</ele>
<time>2017-03-01T09:21:40Z</time>
</trkpt>
<trkpt lat="40.640274999999995" lon="-3.1556833333333336">
<ele>704</ele>
<time>2017-03-01T09:21:42Z</time>
</trkpt>
<trkpt lat="40.64030833333334" lon="-3.1556833333333336">
<ele>704</ele>
<time>2017-03-01T09:21:44Z</time>
</trkpt>
<trkpt lat="40.64033" lon="-3.1556766666666665">
<ele>705</ele>
<time>2017-03-01T09:21:46Z</time>
</trkpt>
<trkpt lat="40.640343333333334" lon="-3.155663333333334">
<ele>705</ele>
<time>2017-03-01T09:21:48Z</time>
</trkpt>
<trkpt lat="40.64035" lon="-3.1556666666666664">
<ele>705</ele>
<time>2017-03-01T09:21:50Z</time>
</trkpt>
<trkpt lat="40.64035333333334" lon="-3.1556683333333333">
<ele>705</ele>
<time>2017-03-01T09:21:52Z</time>
</trkpt>
<trkpt lat="40.64035333333334" lon="-3.1556683333333333">
<ele>705</ele>
<time>2017-03-01T09:21:54Z</time>
</trkpt>
<trkpt lat="40.64035333333334" lon="-3.1556683333333333">
<ele>705</ele>
<time>2017-03-01T09:21:56Z</time>
</trkpt>
<trkpt lat="40.64035333333334" lon="-3.1556683333333333">
<ele>705</ele>
<time>2017-03-01T09:21:58Z</time>
</trkpt>
<trkpt lat="40.64035333333334" lon="-3.1556683333333333">
<ele>705</ele>
<time>2017-03-01T09:22:00Z</time>
</trkpt>
<trkpt lat="40.64035333333334" lon="-3.1556683333333333">
<ele>705</ele>
<time>2017-03-01T09:22:02Z</time>
</trkpt>
<trkpt lat="40.64044" lon="-3.1556900000000003">
<ele>706</ele>
<time>2017-03-01T09:22:04Z</time>
</trkpt>
<trkpt lat="40.64045833333333" lon="-3.155695">
<ele>707</ele>
<time>2017-03-01T09:22:06Z</time>
</trkpt>
<trkpt lat="40.64047166666667" lon="-3.155701666666667">
<ele>707</ele>
<time>2017-03-01T09:22:08Z</time>
</trkpt>
<trkpt lat="40.64047666666667" lon="-3.1557083333333327">
<ele>707</ele>
<time>2017-03-01T09:22:10Z</time>
</trkpt>
<trkpt lat="40.64047666666667" lon="-3.1557083333333327">
<ele>707</ele>
<time>2017-03-01T09:22:12Z</time>
</trkpt>
<trkpt lat="40.64051166666666" lon="-3.155688333333333">
<ele>707</ele>
<time>2017-03-01T09:22:14Z</time>
</trkpt>
<trkpt lat="40.64053166666667" lon="-3.155665">
<ele>708</ele>
<time>2017-03-01T09:22:16Z</time>
</trkpt>
<trkpt lat="40.640544999999996" lon="-3.1556399999999996">
<ele>708</ele>
<time>2017-03-01T09:22:18Z</time>
</trkpt>
<trkpt lat="40.64055666666666" lon="-3.155626666666667">
<ele>708</ele>
<time>2017-03-01T09:22:20Z</time>
</trkpt>
<trkpt lat="40.640555" lon="-3.155615">
<ele>709</ele>
<time>2017-03-01T09:22:22Z</time>
</trkpt>
<trkpt lat="40.640555" lon="-3.155615">
<ele>709</ele>
<time>2017-03-01T09:22:24Z</time>
</trkpt>
<trkpt lat="40.640555" lon="-3.155615">
<ele>709</ele>
<time>2017-03-01T09:22:26Z</time>
</trkpt>
<trkpt lat="40.640555" lon="-3.155615">
<ele>709</ele>
<time>2017-03-01T09:22:28Z</time>
</trkpt>
<trkpt lat="40.64051666666667" lon="-3.1556316666666664">
<ele>709</ele>
<time>2017-03-01T09:22:30Z</time>
</trkpt>
<trkpt lat="40.64048833333333" lon="-3.1556699999999998">
<ele>709</ele>
<time>2017-03-01T09:22:32Z</time>
</trkpt>
<trkpt lat="40.640481666666666" lon="-3.155671666666667">
<ele>709</ele>
<time>2017-03-01T09:22:34Z</time>
</trkpt>
<trkpt lat="40.640481666666666" lon="-3.155671666666667">
<ele>709</ele>
<time>2017-03-01T09:22:36Z</time>
</trkpt>
<trkpt lat="40.640481666666666" lon="-3.155671666666667">
<ele>709</ele>
<time>2017-03-01T09:22:38Z</time>
</trkpt>
<trkpt lat="40.640481666666666" lon="-3.155671666666667">
<ele>709</ele>
<time>2017-03-01T09:22:40Z</time>
</trkpt>
<trkpt lat="40.640481666666666" lon="-3.155671666666667">
<ele>709</ele>
<time>2017-03-01T09:22:42Z</time>
</trkpt>
<trkpt lat="40.640481666666666" lon="-3.155671666666667">
<ele>709</ele>
<time>2017-03-01T09:22:44Z</time>
</trkpt>
<trkpt lat="40.640388333333334" lon="-3.1557483333333334">
<ele>710</ele>
<time>2017-03-01T09:22:46Z</time>
</trkpt>
<trkpt lat="40.640366666666665" lon="-3.1557500000000003">
<ele>710</ele>
<time>2017-03-01T09:22:48Z</time>
</trkpt>
<trkpt lat="40.64035" lon="-3.1557649999999997">
<ele>710</ele>
<time>2017-03-01T09:22:50Z</time>
</trkpt>
<trkpt lat="40.640345" lon="-3.155768333333333">
<ele>710</ele>
<time>2017-03-01T09:22:52Z</time>
</trkpt>
<trkpt lat="40.640345" lon="-3.155768333333333">
<ele>710</ele>
<time>2017-03-01T09:22:54Z</time>
</trkpt>
<trkpt lat="40.640285" lon="-3.155815">
<ele>710</ele>
<time>2017-03-01T09:22:56Z</time>
</trkpt>
<trkpt lat="40.64026333333334" lon="-3.1558166666666665">
<ele>710</ele>
<time>2017-03-01T09:22:58Z</time>
</trkpt>
<trkpt lat="40.64023666666667" lon="-3.155815">
<ele>710</ele>
<time>2017-03-01T09:23:00Z</time>
</trkpt>
<trkpt lat="40.640213333333335" lon="-3.155818333333334">
<ele>710</ele>
<time>2017-03-01T09:23:02Z</time>
</trkpt>
<trkpt lat="40.640195" lon="-3.1558083333333333">
<ele>710</ele>
<time>2017-03-01T09:23:04Z</time>
</trkpt>
<trkpt lat="40.640165" lon="-3.1558249999999997">
<ele>710</ele>
<time>2017-03-01T09:23:06Z</time>
</trkpt>
<trkpt lat="40.64015" lon="-3.155818333333334">
<ele>710</ele>
<time>2017-03-01T09:23:08Z</time>
</trkpt>
<trkpt lat="40.64013" lon="-3.155815">
<ele>710</ele>
<time>2017-03-01T09:23:10Z</time>
</trkpt>
<trkpt lat="40.64011333333334" lon="-3.15582">
<ele>710</ele>
<time>2017-03-01T09:23:12Z</time>
</trkpt>
<trkpt lat="40.64009333333333" lon="-3.1558033333333335">
<ele>710</ele>
<time>2017-03-01T09:23:14Z</time>
</trkpt>
<trkpt lat="40.64007" lon="-3.1558083333333333">
<ele>710</ele>
<time>2017-03-01T09:23:16Z</time>
</trkpt>
<trkpt lat="40.640053333333334" lon="-3.1558166666666665">
<ele>710</ele>
<time>2017-03-01T09:23:18Z</time>
</trkpt>
<trkpt lat="40.64003666666667" lon="-3.1558249999999997">
<ele>710</ele>
<time>2017-03-01T09:23:20Z</time>
</trkpt>
<trkpt lat="40.64003666666667" lon="-3.1558249999999997">
<ele>710</ele>
<time>2017-03-01T09:23:22Z</time>
</trkpt>
<trkpt lat="40.64003666666667" lon="-3.1558249999999997">
<ele>710</ele>
<time>2017-03-01T09:23:24Z</time>
</trkpt>
<trkpt lat="40.64003666666667" lon="-3.1558249999999997">
<ele>710</ele>
<time>2017-03-01T09:23:26Z</time>
</trkpt>
<trkpt lat="40.639963333333334" lon="-3.155851666666666">
<ele>710</ele>
<time>2017-03-01T09:23:28Z</time>
</trkpt>
<trkpt lat="40.639943333333335" lon="-3.15585">
<ele>710</ele>
<time>2017-03-01T09:23:30Z</time>
</trkpt>
<trkpt lat="40.63992" lon="-3.155851666666666">
<ele>710</ele>
<time>2017-03-01T09:23:32Z</time>
</trkpt>
<trkpt lat="40.639895" lon="-3.1558483333333336">
<ele>710</ele>
<time>2017-03-01T09:23:34Z</time>
</trkpt>
<trkpt lat="40.639873333333334" lon="-3.1558450000000002">
<ele>710</ele>
<time>2017-03-01T09:23:36Z</time>
</trkpt>
<trkpt lat="40.63986833333333" lon="-3.15585">
<ele>711</ele>
<time>2017-03-01T09:23:38Z</time>
</trkpt>
<trkpt lat="40.63986666666666" lon="-3.1558450000000002">
<ele>711</ele>
<time>2017-03-01T09:23:40Z</time>
</trkpt>
<trkpt lat="40.63986666666666" lon="-3.1558450000000002">
<ele>711</ele>
<time>2017-03-01T09:23:42Z</time>
</trkpt>
<trkpt lat="40.63986666666666" lon="-3.1558450000000002">
<ele>711</ele>
<time>2017-03-01T09:23:44Z</time>
</trkpt>
<trkpt lat="40.63986666666666" lon="-3.1558450000000002">
<ele>711</ele>
<time>2017-03-01T09:23:46Z</time>
</trkpt>
<trkpt lat="40.639828333333334" lon="-3.155796666666667">
<ele>710</ele>
<time>2017-03-01T09:23:48Z</time>
</trkpt>
<trkpt lat="40.639813333333336" lon="-3.1558">
<ele>710</ele>
<time>2017-03-01T09:23:50Z</time>
</trkpt>
<trkpt lat="40.63979" lon="-3.155783333333333">
<ele>710</ele>
<time>2017-03-01T09:23:52Z</time>
</trkpt>
<trkpt lat="40.639775" lon="-3.1557883333333336">
<ele>710</ele>
<time>2017-03-01T09:23:54Z</time>
</trkpt>
<trkpt lat="40.639761666666665" lon="-3.155796666666667">
<ele>710</ele>
<time>2017-03-01T09:23:56Z</time>
</trkpt>
<trkpt lat="40.63975333333334" lon="-3.155805">
<ele>710</ele>
<time>2017-03-01T09:23:58Z</time>
</trkpt>
<trkpt lat="40.63975333333334" lon="-3.155805">
<ele>710</ele>
<time>2017-03-01T09:24:00Z</time>
</trkpt>
<trkpt lat="40.63975333333334" lon="-3.155805">
<ele>710</ele>
<time>2017-03-01T09:24:02Z</time>
</trkpt>
<trkpt lat="40.639705000000006" lon="-3.155778333333333">
<ele>710</ele>
<time>2017-03-01T09:24:04Z</time>
</trkpt>
<trkpt lat="40.639673333333334" lon="-3.1557799999999996">
<ele>710</ele>
<time>2017-03-01T09:24:06Z</time>
</trkpt>
<trkpt lat="40.639648333333334" lon="-3.1557716666666664">
<ele>710</ele>
<time>2017-03-01T09:24:08Z</time>
</trkpt>
<trkpt lat="40.639645" lon="-3.155778333333333">
<ele>710</ele>
<time>2017-03-01T09:24:10Z</time>
</trkpt>
<trkpt lat="40.63963833333333" lon="-3.1557649999999997">
<ele>710</ele>
<time>2017-03-01T09:24:12Z</time>
</trkpt>
<trkpt lat="40.6396" lon="-3.1557433333333336">
<ele>710</ele>
<time>2017-03-01T09:24:14Z</time>
</trkpt>
<trkpt lat="40.639575" lon="-3.1557416666666662">
<ele>710</ele>
<time>2017-03-01T09:24:16Z</time>
</trkpt>
<trkpt lat="40.63956833333334" lon="-3.1557433333333336">
<ele>710</ele>
<time>2017-03-01T09:24:18Z</time>
</trkpt>
<trkpt lat="40.6395" lon="-3.1558">
<ele>711</ele>
<time>2017-03-01T09:24:20Z</time>
</trkpt>
<trkpt lat="40.63947333333333" lon="-3.155835">
<ele>711</ele>
<time>2017-03-01T09:24:22Z</time>
</trkpt>
<trkpt lat="40.63945666666667" lon="-3.1558450000000002">
<ele>711</ele>
<time>2017-03-01T09:24:24Z</time>
</trkpt>
<trkpt lat="40.639433333333336" lon="-3.1558800000000002">
<ele>712</ele>
<time>2017-03-01T09:24:26Z</time>
</trkpt>
<trkpt lat="40.639388333333336" lon="-3.1558983333333335">
<ele>712</ele>
<time>2017-03-01T09:24:28Z</time>
</trkpt>
<trkpt lat="40.639363333333336" lon="-3.1559266666666663">
<ele>713</ele>
<time>2017-03-01T09:24:30Z</time>
</trkpt>
<trkpt lat="40.639343333333336" lon="-3.1559633333333332">
<ele>713</ele>
<time>2017-03-01T09:24:32Z</time>
</trkpt>
<trkpt lat="40.63931" lon="-3.156036666666666">
<ele>713</ele>
<time>2017-03-01T09:24:34Z</time>
</trkpt>
<trkpt lat="40.63927833333333" lon="-3.1560483333333336">
<ele>712</ele>
<time>2017-03-01T09:24:36Z</time>
</trkpt>
<trkpt lat="40.639275" lon="-3.156005">
<ele>713</ele>
<time>2017-03-01T09:24:38Z</time>
</trkpt>
<trkpt lat="40.63925833333334" lon="-3.1559483333333334">
<ele>714</ele>
<time>2017-03-01T09:24:40Z</time>
</trkpt>
<trkpt lat="40.63923166666667" lon="-3.1559749999999998">
<ele>716</ele>
<time>2017-03-01T09:24:42Z</time>
</trkpt>
<trkpt lat="40.63925666666667" lon="-3.1560016666666666">
<ele>716</ele>
<time>2017-03-01T09:24:44Z</time>
</trkpt>
<trkpt lat="40.63930333333334" lon="-3.1560533333333334">
<ele>717</ele>
<time>2017-03-01T09:24:46Z</time>
</trkpt>
<trkpt lat="40.63931166666667" lon="-3.15608">
<ele>718</ele>
<time>2017-03-01T09:24:48Z</time>
</trkpt>
<trkpt lat="40.639315" lon="-3.1561066666666666">
<ele>718</ele>
<time>2017-03-01T09:24:50Z</time>
</trkpt>
<trkpt lat="40.63932166666667" lon="-3.15614">
<ele>719</ele>
<time>2017-03-01T09:24:52Z</time>
</trkpt>
<trkpt lat="40.639345000000006" lon="-3.1561649999999997">
<ele>721</ele>
<time>2017-03-01T09:24:54Z</time>
</trkpt>
<trkpt lat="40.63934666666667" lon="-3.156183333333333">
<ele>722</ele>
<time>2017-03-01T09:24:56Z</time>
</trkpt>
<trkpt lat="40.63935" lon="-3.156205">
<ele>723</ele>
<time>2017-03-01T09:24:58Z</time>
</trkpt>
<trkpt lat="40.63935166666667" lon="-3.1562300000000003">
<ele>724</ele>
<time>2017-03-01T09:25:00Z</time>
</trkpt>
<trkpt lat="40.639358333333334" lon="-3.156263333333334">
<ele>724</ele>
<time>2017-03-01T09:25:02Z</time>
</trkpt>
<trkpt lat="40.63936833333333" lon="-3.1562933333333327">
<ele>725</ele>
<time>2017-03-01T09:25:04Z</time>
</trkpt>
<trkpt lat="40.63937166666666" lon="-3.156316666666667">
<ele>726</ele>
<time>2017-03-01T09:25:06Z</time>
</trkpt>
<trkpt lat="40.639375" lon="-3.156336666666667">
<ele>726</ele>
<time>2017-03-01T09:25:08Z</time>
</trkpt>
<trkpt lat="40.639375" lon="-3.156336666666667">
<ele>726</ele>
<time>2017-03-01T09:25:10Z</time>
</trkpt>
<trkpt lat="40.639375" lon="-3.156336666666667">
<ele>726</ele>
<time>2017-03-01T09:25:12Z</time>
</trkpt>
<trkpt lat="40.63938666666666" lon="-3.1563949999999994">
<ele>728</ele>
<time>2017-03-01T09:25:14Z</time>
</trkpt>
<trkpt lat="40.639379999999996" lon="-3.1564300000000003">
<ele>728</ele>
<time>2017-03-01T09:25:16Z</time>
</trkpt>
<trkpt lat="40.63938333333333" lon="-3.1564750000000004">
<ele>729</ele>
<time>2017-03-01T09:25:18Z</time>
</trkpt>
<trkpt lat="40.63937833333333" lon="-3.1565066666666666">
<ele>729</ele>
<time>2017-03-01T09:25:20Z</time>
</trkpt>
<trkpt lat="40.63937166666666" lon="-3.15651">
<ele>730</ele>
<time>2017-03-01T09:25:22Z</time>
</trkpt>
<trkpt lat="40.63937166666666" lon="-3.15651">
<ele>730</ele>
<time>2017-03-01T09:25:24Z</time>
</trkpt>
<trkpt lat="40.63937166666666" lon="-3.15651">
<ele>730</ele>
<time>2017-03-01T09:25:26Z</time>
</trkpt>
<trkpt lat="40.639450000000004" lon="-3.156518333333333">
<ele>729</ele>
<time>2017-03-01T09:25:28Z</time>
</trkpt>
<trkpt lat="40.639475" lon="-3.1565200000000004">
<ele>729</ele>
<time>2017-03-01T09:25:30Z</time>
</trkpt>
<trkpt lat="40.63950666666666" lon="-3.1565066666666666">
<ele>730</ele>
<time>2017-03-01T09:25:32Z</time>
</trkpt>
<trkpt lat="40.63951833333333" lon="-3.156486666666667">
<ele>730</ele>
<time>2017-03-01T09:25:34Z</time>
</trkpt>
<trkpt lat="40.639535" lon="-3.156471666666667">
<ele>731</ele>
<time>2017-03-01T09:25:36Z</time>
</trkpt>
<trkpt lat="40.63955333333333" lon="-3.156476666666667">
<ele>731</ele>
<time>2017-03-01T09:25:38Z</time>
</trkpt>
<trkpt lat="40.63956333333333" lon="-3.1564750000000004">
<ele>731</ele>
<time>2017-03-01T09:25:40Z</time>
</trkpt>
<trkpt lat="40.63956833333334" lon="-3.156481666666666">
<ele>731</ele>
<time>2017-03-01T09:25:42Z</time>
</trkpt>
<trkpt lat="40.63956833333334" lon="-3.156481666666666">
<ele>731</ele>
<time>2017-03-01T09:25:44Z</time>
</trkpt>
<trkpt lat="40.63961333333334" lon="-3.1564666666666663">
<ele>731</ele>
<time>2017-03-01T09:25:46Z</time>
</trkpt>
<trkpt lat="40.639633333333336" lon="-3.156463333333334">
<ele>732</ele>
<time>2017-03-01T09:25:48Z</time>
</trkpt>
<trkpt lat="40.639660000000006" lon="-3.1564699999999997">
<ele>732</ele>
<time>2017-03-01T09:25:50Z</time>
</trkpt>
<trkpt lat="40.639675000000004" lon="-3.1564933333333327">
<ele>732</ele>
<time>2017-03-01T09:25:52Z</time>
</trkpt>
<trkpt lat="40.63968166666667" lon="-3.1564983333333334">
<ele>732</ele>
<time>2017-03-01T09:25:54Z</time>
</trkpt>
<trkpt lat="40.63968166666667" lon="-3.1564983333333334">
<ele>732</ele>
<time>2017-03-01T09:25:56Z</time>
</trkpt>
<trkpt lat="40.63968166666667" lon="-3.1564983333333334">
<ele>732</ele>
<time>2017-03-01T09:25:58Z</time>
</trkpt>
<trkpt lat="40.63973333333333" lon="-3.1564833333333335">
<ele>733</ele>
<time>2017-03-01T09:26:00Z</time>
</trkpt>
<trkpt lat="40.639755" lon="-3.15648">
<ele>733</ele>
<time>2017-03-01T09:26:02Z</time>
</trkpt>
<trkpt lat="40.639768333333336" lon="-3.1564666666666663">
<ele>734</ele>
<time>2017-03-01T09:26:04Z</time>
</trkpt>
<trkpt lat="40.639768333333336" lon="-3.156458333333333">
<ele>734</ele>
<time>2017-03-01T09:26:06Z</time>
</trkpt>
<trkpt lat="40.639755" lon="-3.1564466666666666">
<ele>735</ele>
<time>2017-03-01T09:26:08Z</time>
</trkpt>
<trkpt lat="40.63975000000001" lon="-3.1565499999999997">
<ele>732</ele>
<time>2017-03-01T09:26:10Z</time>
</trkpt>
<trkpt lat="40.63976666666667" lon="-3.15654">
<ele>730</ele>
<time>2017-03-01T09:26:12Z</time>
</trkpt>
<trkpt lat="40.639806666666665" lon="-3.1565483333333333">
<ele>729</ele>
<time>2017-03-01T09:26:14Z</time>
</trkpt>
<trkpt lat="40.63988833333334" lon="-3.156563333333333">
<ele>728</ele>
<time>2017-03-01T09:26:16Z</time>
</trkpt>
<trkpt lat="40.63993833333333" lon="-3.156563333333333">
<ele>728</ele>
<time>2017-03-01T09:26:18Z</time>
</trkpt>
<trkpt lat="40.63997" lon="-3.1565283333333336">
<ele>729</ele>
<time>2017-03-01T09:26:20Z</time>
</trkpt>
<trkpt lat="40.64000166666666" lon="-3.1565299999999996">
<ele>729</ele>
<time>2017-03-01T09:26:22Z</time>
</trkpt>
<trkpt lat="40.64" lon="-3.1564750000000004">
<ele>729</ele>
<time>2017-03-01T09:26:24Z</time>
</trkpt>
<trkpt lat="40.63999833333333" lon="-3.156503333333333">
<ele>729</ele>
<time>2017-03-01T09:26:26Z</time>
</trkpt>
<trkpt lat="40.640015" lon="-3.15642">
<ele>729</ele>
<time>2017-03-01T09:26:28Z</time>
</trkpt>
<trkpt lat="40.64001833333334" lon="-3.156383333333333">
<ele>728</ele>
<time>2017-03-01T09:26:30Z</time>
</trkpt>
<trkpt lat="40.64001833333334" lon="-3.156383333333333">
<ele>728</ele>
<time>2017-03-01T09:26:32Z</time>
</trkpt>
<trkpt lat="40.64001833333334" lon="-3.156436666666666">
<ele>727</ele>
<time>2017-03-01T09:26:34Z</time>
</trkpt>
<trkpt lat="40.64006833333334" lon="-3.1564699999999997">
<ele>726</ele>
<time>2017-03-01T09:26:36Z</time>
</trkpt>
<trkpt lat="40.640094999999995" lon="-3.1564166666666664">
<ele>726</ele>
<time>2017-03-01T09:26:38Z</time>
</trkpt>
<trkpt lat="40.64004666666666" lon="-3.156403333333334">
<ele>707</ele>
<time>2017-03-01T09:26:40Z</time>
</trkpt>
<trkpt lat="40.64004166666667" lon="-3.1563299999999996">
<ele>705</ele>
<time>2017-03-01T09:26:42Z</time>
</trkpt>
<trkpt lat="40.64001833333334" lon="-3.156263333333334">
<ele>706</ele>
<time>2017-03-01T09:26:44Z</time>
</trkpt>
<trkpt lat="40.64003833333334" lon="-3.156236666666666">
<ele>707</ele>
<time>2017-03-01T09:26:46Z</time>
</trkpt>
<trkpt lat="40.64008833333333" lon="-3.1562300000000003">
<ele>708</ele>
<time>2017-03-01T09:26:48Z</time>
</trkpt>
<trkpt lat="40.64010833333334" lon="-3.1562433333333333">
<ele>709</ele>
<time>2017-03-01T09:26:50Z</time>
</trkpt>
<trkpt lat="40.640139999999995" lon="-3.1562683333333337">
<ele>711</ele>
<time>2017-03-01T09:26:52Z</time>
</trkpt>
<trkpt lat="40.64017833333333" lon="-3.1563050000000006">
<ele>711</ele>
<time>2017-03-01T09:26:54Z</time>
</trkpt>
<trkpt lat="40.64019666666666" lon="-3.156301666666667">
<ele>712</ele>
<time>2017-03-01T09:26:56Z</time>
</trkpt>
<trkpt lat="40.64022666666666" lon="-3.1563116666666664">
<ele>713</ele>
<time>2017-03-01T09:26:58Z</time>
</trkpt>
<trkpt lat="40.64023666666667" lon="-3.1563133333333337">
<ele>713</ele>
<time>2017-03-01T09:27:00Z</time>
</trkpt>
<trkpt lat="40.64024833333334" lon="-3.1563200000000005">
<ele>713</ele>
<time>2017-03-01T09:27:02Z</time>
</trkpt>
<trkpt lat="40.64024833333334" lon="-3.1563200000000005">
<ele>713</ele>
<time>2017-03-01T09:27:04Z</time>
</trkpt>
<trkpt lat="40.64024833333334" lon="-3.1563200000000005">
<ele>713</ele>
<time>2017-03-01T09:27:06Z</time>
</trkpt>
<trkpt lat="40.64024833333334" lon="-3.1563200000000005">
<ele>713</ele>
<time>2017-03-01T09:27:08Z</time>
</trkpt>
<trkpt lat="40.64031666666666" lon="-3.156301666666667">
<ele>712</ele>
<time>2017-03-01T09:27:10Z</time>
</trkpt>
<trkpt lat="40.640343333333334" lon="-3.1563066666666666">
<ele>712</ele>
<time>2017-03-01T09:27:12Z</time>
</trkpt>
<trkpt lat="40.640355" lon="-3.1563">
<ele>711</ele>
<time>2017-03-01T09:27:14Z</time>
</trkpt>
<trkpt lat="40.64035666666667" lon="-3.156295">
<ele>711</ele>
<time>2017-03-01T09:27:16Z</time>
</trkpt>
<trkpt lat="40.64037833333334" lon="-3.1562849999999996">
<ele>710</ele>
<time>2017-03-01T09:27:18Z</time>
</trkpt>
<trkpt lat="40.640395" lon="-3.156265">
<ele>713</ele>
<time>2017-03-01T09:27:20Z</time>
</trkpt>
<trkpt lat="40.64043166666667" lon="-3.1562533333333334">
<ele>714</ele>
<time>2017-03-01T09:27:22Z</time>
</trkpt>
<trkpt lat="40.640465" lon="-3.156241666666667">
<ele>714</ele>
<time>2017-03-01T09:27:24Z</time>
</trkpt>
<trkpt lat="40.64049" lon="-3.1562216666666663">
<ele>714</ele>
<time>2017-03-01T09:27:26Z</time>
</trkpt>
<trkpt lat="40.640481666666666" lon="-3.1562">
<ele>712</ele>
<time>2017-03-01T09:27:28Z</time>
</trkpt>
<trkpt lat="40.64046333333333" lon="-3.1561250000000003">
<ele>714</ele>
<time>2017-03-01T09:27:30Z</time>
</trkpt>
<trkpt lat="40.640451666666664" lon="-3.156051666666666">
<ele>718</ele>
<time>2017-03-01T09:27:32Z</time>
</trkpt>
<trkpt lat="40.64045333333333" lon="-3.156036666666666">
<ele>721</ele>
<time>2017-03-01T09:27:34Z</time>
</trkpt>
<trkpt lat="40.64045833333333" lon="-3.1560483333333336">
<ele>722</ele>
<time>2017-03-01T09:27:36Z</time>
</trkpt>
<trkpt lat="40.64045833333333" lon="-3.1560483333333336">
<ele>722</ele>
<time>2017-03-01T09:27:38Z</time>
</trkpt>
<trkpt lat="40.64045833333333" lon="-3.1560483333333336">
<ele>722</ele>
<time>2017-03-01T09:27:40Z</time>
</trkpt>
<trkpt lat="40.64051" lon="-3.1561966666666668">
<ele>720</ele>
<time>2017-03-01T09:27:42Z</time>
</trkpt>
<trkpt lat="40.640523333333334" lon="-3.1562249999999996">
<ele>719</ele>
<time>2017-03-01T09:27:44Z</time>
</trkpt>
<trkpt lat="40.640523333333334" lon="-3.1562249999999996">
<ele>719</ele>
<time>2017-03-01T09:27:46Z</time>
</trkpt>
<trkpt lat="40.640523333333334" lon="-3.1562249999999996">
<ele>719</ele>
<time>2017-03-01T09:27:48Z</time>
</trkpt>
<trkpt lat="40.640523333333334" lon="-3.1562249999999996">
<ele>719</ele>
<time>2017-03-01T09:27:50Z</time>
</trkpt>
<trkpt lat="40.640523333333334" lon="-3.1562249999999996">
<ele>719</ele>
<time>2017-03-01T09:27:52Z</time>
</trkpt>
<trkpt lat="40.640523333333334" lon="-3.1562249999999996">
<ele>719</ele>
<time>2017-03-01T09:27:54Z</time>
</trkpt>
<trkpt lat="40.640523333333334" lon="-3.1562249999999996">
<ele>719</ele>
<time>2017-03-01T09:27:56Z</time>
</trkpt>
<trkpt lat="40.640523333333334" lon="-3.1562249999999996">
<ele>719</ele>
<time>2017-03-01T09:27:58Z</time>
</trkpt>
<trkpt lat="40.640523333333334" lon="-3.1562249999999996">
<ele>719</ele>
<time>2017-03-01T09:28:00Z</time>
</trkpt>
<trkpt lat="40.640523333333334" lon="-3.1562249999999996">
<ele>719</ele>
<time>2017-03-01T09:28:02Z</time>
</trkpt>
<trkpt lat="40.640523333333334" lon="-3.1562249999999996">
<ele>719</ele>
<time>2017-03-01T09:28:04Z</time>
</trkpt>
<trkpt lat="40.640523333333334" lon="-3.1562249999999996">
<ele>719</ele>
<time>2017-03-01T09:28:06Z</time>
</trkpt>
<trkpt lat="40.640523333333334" lon="-3.1562249999999996">
<ele>719</ele>
<time>2017-03-01T09:28:08Z</time>
</trkpt>
<trkpt lat="40.640523333333334" lon="-3.1562249999999996">
<ele>719</ele>
<time>2017-03-01T09:28:10Z</time>
</trkpt>
<trkpt lat="40.640523333333334" lon="-3.1562249999999996">
<ele>719</ele>
<time>2017-03-01T09:28:12Z</time>
</trkpt>
<trkpt lat="40.640523333333334" lon="-3.1562249999999996">
<ele>719</ele>
<time>2017-03-01T09:28:14Z</time>
</trkpt>
<trkpt lat="40.640523333333334" lon="-3.1562249999999996">
<ele>719</ele>
<time>2017-03-01T09:28:16Z</time>
</trkpt>
<trkpt lat="40.640523333333334" lon="-3.1562249999999996">
<ele>719</ele>
<time>2017-03-01T09:28:18Z</time>
</trkpt>
<trkpt lat="40.640523333333334" lon="-3.1562249999999996">
<ele>719</ele>
<time>2017-03-01T09:28:20Z</time>
</trkpt>
<trkpt lat="40.640523333333334" lon="-3.1562249999999996">
<ele>719</ele>
<time>2017-03-01T09:28:22Z</time>
</trkpt>
<trkpt lat="40.640523333333334" lon="-3.1562249999999996">
<ele>719</ele>
<time>2017-03-01T09:28:24Z</time>
</trkpt>
<trkpt lat="40.64054833333333" lon="-3.1561883333333336">
<ele>719</ele>
<time>2017-03-01T09:28:26Z</time>
</trkpt>
<trkpt lat="40.64054" lon="-3.1561783333333335">
<ele>719</ele>
<time>2017-03-01T09:28:28Z</time>
</trkpt>
<trkpt lat="40.640528333333336" lon="-3.1561933333333334">
<ele>719</ele>
<time>2017-03-01T09:28:30Z</time>
</trkpt>
<trkpt lat="40.64049833333333" lon="-3.1562300000000003">
<ele>718</ele>
<time>2017-03-01T09:28:32Z</time>
</trkpt>
<trkpt lat="40.64047333333333" lon="-3.156263333333334">
<ele>718</ele>
<time>2017-03-01T09:28:34Z</time>
</trkpt>
<trkpt lat="40.640451666666664" lon="-3.156295">
<ele>718</ele>
<time>2017-03-01T09:28:36Z</time>
</trkpt>
<trkpt lat="40.64041666666667" lon="-3.156338333333333">
<ele>718</ele>
<time>2017-03-01T09:28:38Z</time>
</trkpt>
<trkpt lat="40.640390000000004" lon="-3.156368333333333">
<ele>718</ele>
<time>2017-03-01T09:28:40Z</time>
</trkpt>
<trkpt lat="40.640375" lon="-3.156385">
<ele>719</ele>
<time>2017-03-01T09:28:42Z</time>
</trkpt>
<trkpt lat="40.64034166666667" lon="-3.1564083333333333">
<ele>719</ele>
<time>2017-03-01T09:28:44Z</time>
</trkpt>
<trkpt lat="40.64031333333333" lon="-3.1564166666666664">
<ele>719</ele>
<time>2017-03-01T09:28:46Z</time>
</trkpt>
<trkpt lat="40.640298333333334" lon="-3.156405">
<ele>719</ele>
<time>2017-03-01T09:28:48Z</time>
</trkpt>
<trkpt lat="40.64028" lon="-3.156403333333334">
<ele>719</ele>
<time>2017-03-01T09:28:50Z</time>
</trkpt>
<trkpt lat="40.64027166666666" lon="-3.156413333333333">
<ele>719</ele>
<time>2017-03-01T09:28:52Z</time>
</trkpt>
<trkpt lat="40.64027166666666" lon="-3.156413333333333">
<ele>719</ele>
<time>2017-03-01T09:28:54Z</time>
</trkpt>
<trkpt lat="40.64027166666666" lon="-3.156413333333333">
<ele>719</ele>
<time>2017-03-01T09:28:56Z</time>
</trkpt>
<trkpt lat="40.64027166666666" lon="-3.156413333333333">
<ele>719</ele>
<time>2017-03-01T09:28:58Z</time>
</trkpt>
<trkpt lat="40.64027166666666" lon="-3.156413333333333">
<ele>719</ele>
<time>2017-03-01T09:29:00Z</time>
</trkpt>
<trkpt lat="40.64027166666666" lon="-3.156413333333333">
<ele>719</ele>
<time>2017-03-01T09:29:02Z</time>
</trkpt>
<trkpt lat="40.64027166666666" lon="-3.156413333333333">
<ele>719</ele>
<time>2017-03-01T09:29:04Z</time>
</trkpt>
<trkpt lat="40.64027166666666" lon="-3.156413333333333">
<ele>719</ele>
<time>2017-03-01T09:29:06Z</time>
</trkpt>
<trkpt lat="40.64017333333334" lon="-3.1564216666666662">
<ele>717</ele>
<time>2017-03-01T09:29:08Z</time>
</trkpt>
<trkpt lat="40.640163333333334" lon="-3.1564383333333335">
<ele>716</ele>
<time>2017-03-01T09:29:10Z</time>
</trkpt>
<trkpt lat="40.64015833333334" lon="-3.156441666666667">
<ele>716</ele>
<time>2017-03-01T09:29:12Z</time>
</trkpt>
<trkpt lat="40.640101666666666" lon="-3.156455">
<ele>716</ele>
<time>2017-03-01T09:29:14Z</time>
</trkpt>
<trkpt lat="40.640065" lon="-3.1564600000000005">
<ele>715</ele>
<time>2017-03-01T09:29:16Z</time>
</trkpt>
<trkpt lat="40.64004" lon="-3.156478333333333">
<ele>715</ele>
<time>2017-03-01T09:29:18Z</time>
</trkpt>
<trkpt lat="40.640006666666665" lon="-3.156481666666666">
<ele>715</ele>
<time>2017-03-01T09:29:20Z</time>
</trkpt>
<trkpt lat="40.63998333333333" lon="-3.1564883333333333">
<ele>715</ele>
<time>2017-03-01T09:29:22Z</time>
</trkpt>
<trkpt lat="40.639965" lon="-3.156503333333333">
<ele>714</ele>
<time>2017-03-01T09:29:24Z</time>
</trkpt>
<trkpt lat="40.639961666666665" lon="-3.156503333333333">
<ele>714</ele>
<time>2017-03-01T09:29:26Z</time>
</trkpt>
<trkpt lat="40.639961666666665" lon="-3.156503333333333">
<ele>714</ele>
<time>2017-03-01T09:29:28Z</time>
</trkpt>
<trkpt lat="40.639941666666665" lon="-3.156516666666667">
<ele>714</ele>
<time>2017-03-01T09:29:30Z</time>
</trkpt>
<trkpt lat="40.639925" lon="-3.1565149999999997">
<ele>714</ele>
<time>2017-03-01T09:29:32Z</time>
</trkpt>
<trkpt lat="40.639895" lon="-3.1564933333333327">
<ele>715</ele>
<time>2017-03-01T09:29:34Z</time>
</trkpt>
<trkpt lat="40.63988166666666" lon="-3.1565050000000006">
<ele>715</ele>
<time>2017-03-01T09:29:36Z</time>
</trkpt>
<trkpt lat="40.63986" lon="-3.1565133333333337">
<ele>715</ele>
<time>2017-03-01T09:29:38Z</time>
</trkpt>
<trkpt lat="40.639851666666665" lon="-3.1565133333333337">
<ele>715</ele>
<time>2017-03-01T09:29:40Z</time>
</trkpt>
<trkpt lat="40.63984833333333" lon="-3.156508333333333">
<ele>715</ele>
<time>2017-03-01T09:29:42Z</time>
</trkpt>
<trkpt lat="40.63984833333333" lon="-3.156508333333333">
<ele>715</ele>
<time>2017-03-01T09:29:44Z</time>
</trkpt>
<trkpt lat="40.63977833333333" lon="-3.1564833333333335">
<ele>714</ele>
<time>2017-03-01T09:29:46Z</time>
</trkpt>
<trkpt lat="40.639768333333336" lon="-3.1564600000000005">
<ele>714</ele>
<time>2017-03-01T09:29:48Z</time>
</trkpt>
<trkpt lat="40.63975666666667" lon="-3.1564666666666663">
<ele>714</ele>
<time>2017-03-01T09:29:50Z</time>
</trkpt>
<trkpt lat="40.639739999999996" lon="-3.156463333333334">
<ele>715</ele>
<time>2017-03-01T09:29:52Z</time>
</trkpt>
<trkpt lat="40.63970333333334" lon="-3.156455">
<ele>716</ele>
<time>2017-03-01T09:29:54Z</time>
</trkpt>
<trkpt lat="40.63970333333334" lon="-3.156455">
<ele>716</ele>
<time>2017-03-01T09:29:56Z</time>
</trkpt>
<trkpt lat="40.63970333333334" lon="-3.156455">
<ele>716</ele>
<time>2017-03-01T09:29:58Z</time>
</trkpt>
<trkpt lat="40.63970333333334" lon="-3.156455">
<ele>716</ele>
<time>2017-03-01T09:30:00Z</time>
</trkpt>
<trkpt lat="40.639649999999996" lon="-3.1564750000000004">
<ele>718</ele>
<time>2017-03-01T09:30:02Z</time>
</trkpt>
<trkpt lat="40.63961833333334" lon="-3.1565">
<ele>719</ele>
<time>2017-03-01T09:30:04Z</time>
</trkpt>
<trkpt lat="40.63957833333333" lon="-3.156503333333333">
<ele>720</ele>
<time>2017-03-01T09:30:06Z</time>
</trkpt>
<trkpt lat="40.63955" lon="-3.156463333333334">
<ele>721</ele>
<time>2017-03-01T09:30:08Z</time>
</trkpt>
<trkpt lat="40.63955166666666" lon="-3.1564333333333336">
<ele>720</ele>
<time>2017-03-01T09:30:10Z</time>
</trkpt>
<trkpt lat="40.639536666666665" lon="-3.1564383333333335">
<ele>719</ele>
<time>2017-03-01T09:30:12Z</time>
</trkpt>
<trkpt lat="40.63954833333333" lon="-3.1564183333333338">
<ele>720</ele>
<time>2017-03-01T09:30:14Z</time>
</trkpt>
<trkpt lat="40.639561666666665" lon="-3.156441666666667">
<ele>720</ele>
<time>2017-03-01T09:30:16Z</time>
</trkpt>
<trkpt lat="40.63954666666667" lon="-3.156435">
<ele>720</ele>
<time>2017-03-01T09:30:18Z</time>
</trkpt>
<trkpt lat="40.63952333333334" lon="-3.156436666666666">
<ele>719</ele>
<time>2017-03-01T09:30:20Z</time>
</trkpt>
<trkpt lat="40.639495000000004" lon="-3.1564316666666667">
<ele>718</ele>
<time>2017-03-01T09:30:22Z</time>
</trkpt>
<trkpt lat="40.63946833333333" lon="-3.1564466666666666">
<ele>718</ele>
<time>2017-03-01T09:30:24Z</time>
</trkpt>
<trkpt lat="40.63943666666667" lon="-3.1564983333333334">
<ele>718</ele>
<time>2017-03-01T09:30:26Z</time>
</trkpt>
<trkpt lat="40.639424999999996" lon="-3.1565416666666666">
<ele>718</ele>
<time>2017-03-01T09:30:28Z</time>
</trkpt>
<trkpt lat="40.63941833333333" lon="-3.156568333333333">
<ele>720</ele>
<time>2017-03-01T09:30:30Z</time>
</trkpt>
<trkpt lat="40.6394" lon="-3.156546666666667">
<ele>723</ele>
<time>2017-03-01T09:30:32Z</time>
</trkpt>
<trkpt lat="40.63939666666667" lon="-3.1565416666666666">
<ele>724</ele>
<time>2017-03-01T09:30:34Z</time>
</trkpt>
<trkpt lat="40.63936833333333" lon="-3.1566066666666672">
<ele>728</ele>
<time>2017-03-01T09:30:36Z</time>
</trkpt>
<trkpt lat="40.639395" lon="-3.1566533333333333">
<ele>730</ele>
<time>2017-03-01T09:30:38Z</time>
</trkpt>
<trkpt lat="40.63942" lon="-3.1566883333333333">
<ele>732</ele>
<time>2017-03-01T09:30:40Z</time>
</trkpt>
<trkpt lat="40.63941833333333" lon="-3.1567350000000003">
<ele>732</ele>
<time>2017-03-01T09:30:42Z</time>
</trkpt>
<trkpt lat="40.63941666666666" lon="-3.1567483333333333">
<ele>733</ele>
<time>2017-03-01T09:30:44Z</time>
</trkpt>
<trkpt lat="40.63941666666666" lon="-3.1567516666666666">
<ele>733</ele>
<time>2017-03-01T09:30:46Z</time>
</trkpt>
<trkpt lat="40.63941666666666" lon="-3.1567516666666666">
<ele>733</ele>
<time>2017-03-01T09:30:48Z</time>
</trkpt>
<trkpt lat="40.639455" lon="-3.1567916666666673">
<ele>736</ele>
<time>2017-03-01T09:30:50Z</time>
</trkpt>
<trkpt lat="40.63943833333334" lon="-3.1568466666666666">
<ele>735</ele>
<time>2017-03-01T09:30:52Z</time>
</trkpt>
<trkpt lat="40.639433333333336" lon="-3.15689">
<ele>734</ele>
<time>2017-03-01T09:30:54Z</time>
</trkpt>
<trkpt lat="40.63943833333334" lon="-3.156918333333333">
<ele>734</ele>
<time>2017-03-01T09:30:56Z</time>
</trkpt>
<trkpt lat="40.63944166666667" lon="-3.1569416666666665">
<ele>735</ele>
<time>2017-03-01T09:30:58Z</time>
</trkpt>
<trkpt lat="40.639453333333336" lon="-3.156961666666667">
<ele>736</ele>
<time>2017-03-01T09:31:00Z</time>
</trkpt>
<trkpt lat="40.639471666666665" lon="-3.1569799999999995">
<ele>737</ele>
<time>2017-03-01T09:31:02Z</time>
</trkpt>
<trkpt lat="40.639498333333336" lon="-3.1569949999999998">
<ele>738</ele>
<time>2017-03-01T09:31:04Z</time>
</trkpt>
<trkpt lat="40.639556666666664" lon="-3.1569933333333333">
<ele>739</ele>
<time>2017-03-01T09:31:06Z</time>
</trkpt>
<trkpt lat="40.639588333333336" lon="-3.1569916666666673">
<ele>738</ele>
<time>2017-03-01T09:31:08Z</time>
</trkpt>
<trkpt lat="40.639565" lon="-3.1569966666666667">
<ele>737</ele>
<time>2017-03-01T09:31:10Z</time>
</trkpt>
<trkpt lat="40.63954666666667" lon="-3.157013333333333">
<ele>737</ele>
<time>2017-03-01T09:31:12Z</time>
</trkpt>
<trkpt lat="40.639559999999996" lon="-3.156998333333333">
<ele>737</ele>
<time>2017-03-01T09:31:14Z</time>
</trkpt>
<trkpt lat="40.639595" lon="-3.1569416666666665">
<ele>737</ele>
<time>2017-03-01T09:31:16Z</time>
</trkpt>
<trkpt lat="40.63957166666667" lon="-3.1569066666666665">
<ele>736</ele>
<time>2017-03-01T09:31:18Z</time>
</trkpt>
<trkpt lat="40.639575" lon="-3.1568699999999996">
<ele>736</ele>
<time>2017-03-01T09:31:20Z</time>
</trkpt>
<trkpt lat="40.639570000000006" lon="-3.156836666666666">
<ele>736</ele>
<time>2017-03-01T09:31:22Z</time>
</trkpt>
<trkpt lat="40.63962333333333" lon="-3.156828333333333">
<ele>736</ele>
<time>2017-03-01T09:31:24Z</time>
</trkpt>
<trkpt lat="40.63963833333333" lon="-3.156821666666666">
<ele>735</ele>
<time>2017-03-01T09:31:26Z</time>
</trkpt>
<trkpt lat="40.63963666666667" lon="-3.156828333333333">
<ele>735</ele>
<time>2017-03-01T09:31:28Z</time>
</trkpt>
<trkpt lat="40.63967666666667" lon="-3.1568549999999997">
<ele>735</ele>
<time>2017-03-01T09:31:30Z</time>
</trkpt>
<trkpt lat="40.63967" lon="-3.1568883333333333">
<ele>736</ele>
<time>2017-03-01T09:31:32Z</time>
</trkpt>
<trkpt lat="40.639720000000004" lon="-3.156953333333333">
<ele>735</ele>
<time>2017-03-01T09:31:34Z</time>
</trkpt>
<trkpt lat="40.639671666666665" lon="-3.157008333333333">
<ele>734</ele>
<time>2017-03-01T09:31:36Z</time>
</trkpt>
<trkpt lat="40.639649999999996" lon="-3.1570966666666664">
<ele>734</ele>
<time>2017-03-01T09:31:38Z</time>
</trkpt>
<trkpt lat="40.639675000000004" lon="-3.1571200000000004">
<ele>734</ele>
<time>2017-03-01T09:31:40Z</time>
</trkpt>
<trkpt lat="40.639678333333336" lon="-3.157145">
<ele>733</ele>
<time>2017-03-01T09:31:42Z</time>
</trkpt>
<trkpt lat="40.639694999999996" lon="-3.157145">
<ele>733</ele>
<time>2017-03-01T09:31:44Z</time>
</trkpt>
<trkpt lat="40.63971" lon="-3.1571283333333335">
<ele>734</ele>
<time>2017-03-01T09:31:46Z</time>
</trkpt>
<trkpt lat="40.63971" lon="-3.1571283333333335">
<ele>734</ele>
<time>2017-03-01T09:31:48Z</time>
</trkpt>
<trkpt lat="40.63975166666667" lon="-3.1571349999999994">
<ele>734</ele>
<time>2017-03-01T09:31:50Z</time>
</trkpt>
<trkpt lat="40.63977666666666" lon="-3.157131666666667">
<ele>735</ele>
<time>2017-03-01T09:31:52Z</time>
</trkpt>
<trkpt lat="40.639763333333335" lon="-3.1571416666666665">
<ele>734</ele>
<time>2017-03-01T09:31:54Z</time>
</trkpt>
<trkpt lat="40.639781666666664" lon="-3.1571433333333334">
<ele>734</ele>
<time>2017-03-01T09:31:56Z</time>
</trkpt>
<trkpt lat="40.639808333333335" lon="-3.1571416666666665">
<ele>734</ele>
<time>2017-03-01T09:31:58Z</time>
</trkpt>
<trkpt lat="40.63986666666666" lon="-3.1571583333333337">
<ele>735</ele>
<time>2017-03-01T09:32:00Z</time>
</trkpt>
<trkpt lat="40.63990833333333" lon="-3.1571516666666666">
<ele>736</ele>
<time>2017-03-01T09:32:02Z</time>
</trkpt>
<trkpt lat="40.639916666666664" lon="-3.1571516666666666">
<ele>736</ele>
<time>2017-03-01T09:32:04Z</time>
</trkpt>
<trkpt lat="40.639916666666664" lon="-3.1571516666666666">
<ele>736</ele>
<time>2017-03-01T09:32:06Z</time>
</trkpt>
<trkpt lat="40.63995" lon="-3.1571200000000004">
<ele>734</ele>
<time>2017-03-01T09:32:08Z</time>
</trkpt>
<trkpt lat="40.63993166666667" lon="-3.15714">
<ele>736</ele>
<time>2017-03-01T09:32:10Z</time>
</trkpt>
<trkpt lat="40.63993833333333" lon="-3.157161666666667">
<ele>738</ele>
<time>2017-03-01T09:32:12Z</time>
</trkpt>
<trkpt lat="40.639961666666665" lon="-3.1571866666666666">
<ele>740</ele>
<time>2017-03-01T09:32:14Z</time>
</trkpt>
<trkpt lat="40.63999" lon="-3.15719">
<ele>742</ele>
<time>2017-03-01T09:32:16Z</time>
</trkpt>
<trkpt lat="40.64001333333333" lon="-3.1571916666666673">
<ele>743</ele>
<time>2017-03-01T09:32:18Z</time>
</trkpt>
<trkpt lat="40.64004333333333" lon="-3.1571783333333334">
<ele>743</ele>
<time>2017-03-01T09:32:20Z</time>
</trkpt>
<trkpt lat="40.64004333333333" lon="-3.1571783333333334">
<ele>743</ele>
<time>2017-03-01T09:32:22Z</time>
</trkpt>
<trkpt lat="40.64004333333333" lon="-3.1571783333333334">
<ele>743</ele>
<time>2017-03-01T09:32:24Z</time>
</trkpt>
<trkpt lat="40.64004333333333" lon="-3.1571783333333334">
<ele>743</ele>
<time>2017-03-01T09:32:26Z</time>
</trkpt>
<trkpt lat="40.64004333333333" lon="-3.1571783333333334">
<ele>743</ele>
<time>2017-03-01T09:32:28Z</time>
</trkpt>
<trkpt lat="40.640125" lon="-3.1571550000000004">
<ele>744</ele>
<time>2017-03-01T09:32:30Z</time>
</trkpt>
<trkpt lat="40.64015333333334" lon="-3.157153333333333">
<ele>745</ele>
<time>2017-03-01T09:32:32Z</time>
</trkpt>
<trkpt lat="40.64017333333334" lon="-3.1571433333333334">
<ele>745</ele>
<time>2017-03-01T09:32:34Z</time>
</trkpt>
<trkpt lat="40.64017666666667" lon="-3.1571583333333337">
<ele>744</ele>
<time>2017-03-01T09:32:36Z</time>
</trkpt>
<trkpt lat="40.640168333333335" lon="-3.157176666666667">
<ele>744</ele>
<time>2017-03-01T09:32:38Z</time>
</trkpt>
<trkpt lat="40.640168333333335" lon="-3.157176666666667">
<ele>744</ele>
<time>2017-03-01T09:32:40Z</time>
</trkpt>
<trkpt lat="40.640168333333335" lon="-3.157176666666667">
<ele>744</ele>
<time>2017-03-01T09:32:42Z</time>
</trkpt>
<trkpt lat="40.640213333333335" lon="-3.15722">
<ele>743</ele>
<time>2017-03-01T09:32:44Z</time>
</trkpt>
<trkpt lat="40.64024" lon="-3.15723">
<ele>744</ele>
<time>2017-03-01T09:32:46Z</time>
</trkpt>
<trkpt lat="40.64026166666667" lon="-3.1572383333333334">
<ele>744</ele>
<time>2017-03-01T09:32:48Z</time>
</trkpt>
<trkpt lat="40.64029333333334" lon="-3.157221666666666">
<ele>743</ele>
<time>2017-03-01T09:32:50Z</time>
</trkpt>
<trkpt lat="40.64033333333334" lon="-3.1572083333333336">
<ele>742</ele>
<time>2017-03-01T09:32:52Z</time>
</trkpt>
<trkpt lat="40.64033166666666" lon="-3.1572066666666663">
<ele>742</ele>
<time>2017-03-01T09:32:54Z</time>
</trkpt>
<trkpt lat="40.64033166666666" lon="-3.1572066666666663">
<ele>742</ele>
<time>2017-03-01T09:32:56Z</time>
</trkpt>
<trkpt lat="40.64033166666666" lon="-3.1572066666666663">
<ele>742</ele>
<time>2017-03-01T09:32:58Z</time>
</trkpt>
<trkpt lat="40.64033166666666" lon="-3.1572066666666663">
<ele>742</ele>
<time>2017-03-01T09:33:00Z</time>
</trkpt>
<trkpt lat="40.640425" lon="-3.1571649999999996">
<ele>743</ele>
<time>2017-03-01T09:33:02Z</time>
</trkpt>
<trkpt lat="40.64043" lon="-3.157175">
<ele>743</ele>
<time>2017-03-01T09:33:04Z</time>
</trkpt>
<trkpt lat="40.64043" lon="-3.157175">
<ele>743</ele>
<time>2017-03-01T09:33:06Z</time>
</trkpt>
<trkpt lat="40.64043" lon="-3.157175">
<ele>743</ele>
<time>2017-03-01T09:33:08Z</time>
</trkpt>
<trkpt lat="40.640483333333336" lon="-3.1571883333333335">
<ele>744</ele>
<time>2017-03-01T09:33:10Z</time>
</trkpt>
<trkpt lat="40.64052" lon="-3.1571583333333337">
<ele>743</ele>
<time>2017-03-01T09:33:12Z</time>
</trkpt>
<trkpt lat="40.640528333333336" lon="-3.1571833333333332">
<ele>743</ele>
<time>2017-03-01T09:33:14Z</time>
</trkpt>
<trkpt lat="40.64055333333333" lon="-3.157175">
<ele>740</ele>
<time>2017-03-01T09:33:16Z</time>
</trkpt>
<trkpt lat="40.64056166666667" lon="-3.1571883333333335">
<ele>738</ele>
<time>2017-03-01T09:33:18Z</time>
</trkpt>
<trkpt lat="40.64056" lon="-3.157198333333333">
<ele>737</ele>
<time>2017-03-01T09:33:20Z</time>
</trkpt>
<trkpt lat="40.64058" lon="-3.1572166666666663">
<ele>735</ele>
<time>2017-03-01T09:33:22Z</time>
</trkpt>
<trkpt lat="40.64055666666666" lon="-3.1572366666666665">
<ele>734</ele>
<time>2017-03-01T09:33:24Z</time>
</trkpt>
<trkpt lat="40.64055166666667" lon="-3.1572816666666665">
<ele>733</ele>
<time>2017-03-01T09:33:26Z</time>
</trkpt>
<trkpt lat="40.640541666666664" lon="-3.1573133333333336">
<ele>732</ele>
<time>2017-03-01T09:33:28Z</time>
</trkpt>
<trkpt lat="40.640565" lon="-3.1573416666666665">
<ele>731</ele>
<time>2017-03-01T09:33:30Z</time>
</trkpt>
<trkpt lat="40.640571666666666" lon="-3.1573816666666668">
<ele>732</ele>
<time>2017-03-01T09:33:32Z</time>
</trkpt>
<trkpt lat="40.64056666666667" lon="-3.1574099999999996">
<ele>733</ele>
<time>2017-03-01T09:33:34Z</time>
</trkpt>
<trkpt lat="40.640570000000004" lon="-3.1574766666666667">
<ele>734</ele>
<time>2017-03-01T09:33:36Z</time>
</trkpt>
<trkpt lat="40.64055166666667" lon="-3.15754">
<ele>735</ele>
<time>2017-03-01T09:33:38Z</time>
</trkpt>
<trkpt lat="40.64053" lon="-3.157575">
<ele>736</ele>
<time>2017-03-01T09:33:40Z</time>
</trkpt>
<trkpt lat="40.64050666666667" lon="-3.1576099999999996">
<ele>736</ele>
<time>2017-03-01T09:33:42Z</time>
</trkpt>
<trkpt lat="40.640483333333336" lon="-3.1576099999999996">
<ele>736</ele>
<time>2017-03-01T09:33:44Z</time>
</trkpt>
<trkpt lat="40.64046166666667" lon="-3.1576049999999998">
<ele>735</ele>
<time>2017-03-01T09:33:46Z</time>
</trkpt>
<trkpt lat="40.640385" lon="-3.1576049999999998">
<ele>735</ele>
<time>2017-03-01T09:33:48Z</time>
</trkpt>
<trkpt lat="40.640388333333334" lon="-3.1576066666666662">
<ele>738</ele>
<time>2017-03-01T09:33:50Z</time>
</trkpt>
<trkpt lat="40.640405" lon="-3.157648333333334">
<ele>739</ele>
<time>2017-03-01T09:33:52Z</time>
</trkpt>
<trkpt lat="40.64040166666667" lon="-3.157661666666667">
<ele>739</ele>
<time>2017-03-01T09:33:54Z</time>
</trkpt>
<trkpt lat="40.64040166666667" lon="-3.15768">
<ele>740</ele>
<time>2017-03-01T09:33:56Z</time>
</trkpt>
<trkpt lat="40.64040833333333" lon="-3.1577050000000004">
<ele>740</ele>
<time>2017-03-01T09:33:58Z</time>
</trkpt>
<trkpt lat="40.64040833333333" lon="-3.1577050000000004">
<ele>740</ele>
<time>2017-03-01T09:34:00Z</time>
</trkpt>
<trkpt lat="40.64040833333333" lon="-3.1577050000000004">
<ele>740</ele>
<time>2017-03-01T09:34:02Z</time>
</trkpt>
<trkpt lat="40.64040833333333" lon="-3.1577050000000004">
<ele>740</ele>
<time>2017-03-01T09:34:04Z</time>
</trkpt>
<trkpt lat="40.64040833333333" lon="-3.1577050000000004">
<ele>740</ele>
<time>2017-03-01T09:34:06Z</time>
</trkpt>
<trkpt lat="40.64040833333333" lon="-3.1577050000000004">
<ele>740</ele>
<time>2017-03-01T09:34:08Z</time>
</trkpt>
<trkpt lat="40.64040833333333" lon="-3.1577050000000004">
<ele>740</ele>
<time>2017-03-01T09:34:10Z</time>
</trkpt>
<trkpt lat="40.64038333333333" lon="-3.157748333333333">
<ele>743</ele>
<time>2017-03-01T09:34:12Z</time>
</trkpt>
<trkpt lat="40.640366666666665" lon="-3.1577183333333334">
<ele>744</ele>
<time>2017-03-01T09:34:14Z</time>
</trkpt>
<trkpt lat="40.64037" lon="-3.1576966666666664">
<ele>744</ele>
<time>2017-03-01T09:34:16Z</time>
</trkpt>
<trkpt lat="40.64037" lon="-3.157671666666667">
<ele>745</ele>
<time>2017-03-01T09:34:18Z</time>
</trkpt>
<trkpt lat="40.64037" lon="-3.157671666666667">
<ele>745</ele>
<time>2017-03-01T09:34:20Z</time>
</trkpt>
<trkpt lat="40.64037" lon="-3.157671666666667">
<ele>745</ele>
<time>2017-03-01T09:34:22Z</time>
</trkpt>
<trkpt lat="40.64037" lon="-3.157671666666667">
<ele>745</ele>
<time>2017-03-01T09:34:24Z</time>
</trkpt>
<trkpt lat="40.64037" lon="-3.157671666666667">
<ele>745</ele>
<time>2017-03-01T09:34:26Z</time>
</trkpt>
<trkpt lat="40.640323333333335" lon="-3.157626666666667">
<ele>747</ele>
<time>2017-03-01T09:34:28Z</time>
</trkpt>
<trkpt lat="40.64029" lon="-3.1576099999999996">
<ele>748</ele>
<time>2017-03-01T09:34:30Z</time>
</trkpt>
<trkpt lat="40.64026" lon="-3.157575">
<ele>748</ele>
<time>2017-03-01T09:34:32Z</time>
</trkpt>
<trkpt lat="40.64024666666667" lon="-3.1575583333333337">
<ele>749</ele>
<time>2017-03-01T09:34:34Z</time>
</trkpt>
<trkpt lat="40.640245" lon="-3.15754">
<ele>749</ele>
<time>2017-03-01T09:34:36Z</time>
</trkpt>
<trkpt lat="40.640245" lon="-3.15754">
<ele>749</ele>
<time>2017-03-01T09:34:38Z</time>
</trkpt>
<trkpt lat="40.640245" lon="-3.15754">
<ele>749</ele>
<time>2017-03-01T09:34:40Z</time>
</trkpt>
<trkpt lat="40.640245" lon="-3.15754">
<ele>749</ele>
<time>2017-03-01T09:34:42Z</time>
</trkpt>
<trkpt lat="40.64014833333333" lon="-3.157576666666667">
<ele>750</ele>
<time>2017-03-01T09:34:44Z</time>
</trkpt>
<trkpt lat="40.640125" lon="-3.157716666666667">
<ele>749</ele>
<time>2017-03-01T09:34:46Z</time>
</trkpt>
<trkpt lat="40.64015833333334" lon="-3.1579433333333338">
<ele>748</ele>
<time>2017-03-01T09:34:48Z</time>
</trkpt>
<trkpt lat="40.64012" lon="-3.157966666666667">
<ele>749</ele>
<time>2017-03-01T09:34:50Z</time>
</trkpt>
<trkpt lat="40.639966666666666" lon="-3.1578833333333334">
<ele>748</ele>
<time>2017-03-01T09:34:52Z</time>
</trkpt>
<trkpt lat="40.63994" lon="-3.1578466666666665">
<ele>747</ele>
<time>2017-03-01T09:34:54Z</time>
</trkpt>
<trkpt lat="40.639905" lon="-3.1578016666666664">
<ele>746</ele>
<time>2017-03-01T09:34:56Z</time>
</trkpt>
<trkpt lat="40.64001" lon="-3.157775">
<ele>747</ele>
<time>2017-03-01T09:34:58Z</time>
</trkpt>
<trkpt lat="40.639961666666665" lon="-3.1576733333333333">
<ele>747</ele>
<time>2017-03-01T09:35:00Z</time>
</trkpt>
<trkpt lat="40.639966666666666" lon="-3.1576366666666664">
<ele>748</ele>
<time>2017-03-01T09:35:02Z</time>
</trkpt>
<trkpt lat="40.63998333333333" lon="-3.157611666666667">
<ele>750</ele>
<time>2017-03-01T09:35:04Z</time>
</trkpt>
<trkpt lat="40.63999" lon="-3.157575">
<ele>751</ele>
<time>2017-03-01T09:35:06Z</time>
</trkpt>
<trkpt lat="40.640004999999995" lon="-3.1575149999999996">
<ele>752</ele>
<time>2017-03-01T09:35:08Z</time>
</trkpt>
<trkpt lat="40.64008333333334" lon="-3.1576166666666667">
<ele>754</ele>
<time>2017-03-01T09:35:10Z</time>
</trkpt>
<trkpt lat="40.64011166666667" lon="-3.157746666666667">
<ele>754</ele>
<time>2017-03-01T09:35:12Z</time>
</trkpt>
<trkpt lat="40.64011" lon="-3.157811666666667">
<ele>753</ele>
<time>2017-03-01T09:35:14Z</time>
</trkpt>
<trkpt lat="40.640115" lon="-3.1578399999999998">
<ele>753</ele>
<time>2017-03-01T09:35:16Z</time>
</trkpt>
<trkpt lat="40.640045" lon="-3.15768">
<ele>753</ele>
<time>2017-03-01T09:35:18Z</time>
</trkpt>
<trkpt lat="40.640031666666665" lon="-3.157521666666667">
<ele>752</ele>
<time>2017-03-01T09:35:20Z</time>
</trkpt>
<trkpt lat="40.639995" lon="-3.157421666666666">
<ele>750</ele>
<time>2017-03-01T09:35:22Z</time>
</trkpt>
<trkpt lat="40.639959999999995" lon="-3.1573066666666665">
<ele>749</ele>
<time>2017-03-01T09:35:24Z</time>
</trkpt>
<trkpt lat="40.63994" lon="-3.157293333333333">
<ele>748</ele>
<time>2017-03-01T09:35:26Z</time>
</trkpt>
<trkpt lat="40.63991" lon="-3.1572883333333333">
<ele>747</ele>
<time>2017-03-01T09:35:28Z</time>
</trkpt>
<trkpt lat="40.639826666666664" lon="-3.157243333333333">
<ele>746</ele>
<time>2017-03-01T09:35:30Z</time>
</trkpt>
<trkpt lat="40.63978833333333" lon="-3.1571966666666667">
<ele>745</ele>
<time>2017-03-01T09:35:32Z</time>
</trkpt>
<trkpt lat="40.63985" lon="-3.15723">
<ele>743</ele>
<time>2017-03-01T09:35:34Z</time>
</trkpt>
<trkpt lat="40.639865" lon="-3.1572766666666667">
<ele>740</ele>
<time>2017-03-01T09:35:36Z</time>
</trkpt>
<trkpt lat="40.63982333333333" lon="-3.157286666666667">
<ele>738</ele>
<time>2017-03-01T09:35:38Z</time>
</trkpt>
<trkpt lat="40.6398" lon="-3.1573050000000005">
<ele>736</ele>
<time>2017-03-01T09:35:40Z</time>
</trkpt>
<trkpt lat="40.63977166666667" lon="-3.1573116666666663">
<ele>735</ele>
<time>2017-03-01T09:35:42Z</time>
</trkpt>
<trkpt lat="40.639739999999996" lon="-3.157301666666667">
<ele>734</ele>
<time>2017-03-01T09:35:44Z</time>
</trkpt>
<trkpt lat="40.63971" lon="-3.157263333333333">
<ele>733</ele>
<time>2017-03-01T09:35:46Z</time>
</trkpt>
<trkpt lat="40.63968333333333" lon="-3.1572233333333335">
<ele>733</ele>
<time>2017-03-01T09:35:48Z</time>
</trkpt>
<trkpt lat="40.63970666666667" lon="-3.1572233333333335">
<ele>733</ele>
<time>2017-03-01T09:35:50Z</time>
</trkpt>
<trkpt lat="40.639660000000006" lon="-3.1572183333333337">
<ele>733</ele>
<time>2017-03-01T09:35:52Z</time>
</trkpt>
<trkpt lat="40.63962333333333" lon="-3.157213333333333">
<ele>734</ele>
<time>2017-03-01T09:35:54Z</time>
</trkpt>
<trkpt lat="40.639604999999996" lon="-3.1572083333333336">
<ele>735</ele>
<time>2017-03-01T09:35:56Z</time>
</trkpt>
<trkpt lat="40.63960833333333" lon="-3.1572000000000005">
<ele>736</ele>
<time>2017-03-01T09:35:58Z</time>
</trkpt>
<trkpt lat="40.63962" lon="-3.157175">
<ele>736</ele>
<time>2017-03-01T09:36:00Z</time>
</trkpt>
<trkpt lat="40.639615000000006" lon="-3.157221666666666">
<ele>735</ele>
<time>2017-03-01T09:36:02Z</time>
</trkpt>
<trkpt lat="40.639601666666664" lon="-3.1571733333333336">
<ele>736</ele>
<time>2017-03-01T09:36:04Z</time>
</trkpt>
<trkpt lat="40.639541666666666" lon="-3.1571599999999997">
<ele>735</ele>
<time>2017-03-01T09:36:06Z</time>
</trkpt>
<trkpt lat="40.63951" lon="-3.157175">
<ele>735</ele>
<time>2017-03-01T09:36:08Z</time>
</trkpt>
<trkpt lat="40.63948666666667" lon="-3.1572166666666663">
<ele>735</ele>
<time>2017-03-01T09:36:10Z</time>
</trkpt>
<trkpt lat="40.63946833333333" lon="-3.157265">
<ele>735</ele>
<time>2017-03-01T09:36:12Z</time>
</trkpt>
<trkpt lat="40.63946" lon="-3.157293333333333">
<ele>735</ele>
<time>2017-03-01T09:36:14Z</time>
</trkpt>
<trkpt lat="40.63944166666667" lon="-3.1572900000000006">
<ele>735</ele>
<time>2017-03-01T09:36:16Z</time>
</trkpt>
<trkpt lat="40.63942333333333" lon="-3.157285">
<ele>736</ele>
<time>2017-03-01T09:36:18Z</time>
</trkpt>
<trkpt lat="40.63941666666666" lon="-3.1572833333333334">
<ele>736</ele>
<time>2017-03-01T09:36:20Z</time>
</trkpt>
<trkpt lat="40.639395" lon="-3.1572966666666664">
<ele>736</ele>
<time>2017-03-01T09:36:22Z</time>
</trkpt>
<trkpt lat="40.63937166666666" lon="-3.157323333333333">
<ele>736</ele>
<time>2017-03-01T09:36:24Z</time>
</trkpt>
<trkpt lat="40.63934666666667" lon="-3.1573516666666666">
<ele>737</ele>
<time>2017-03-01T09:36:26Z</time>
</trkpt>
<trkpt lat="40.63934166666666" lon="-3.1573783333333334">
<ele>737</ele>
<time>2017-03-01T09:36:28Z</time>
</trkpt>
<trkpt lat="40.63932333333333" lon="-3.1574083333333336">
<ele>736</ele>
<time>2017-03-01T09:36:30Z</time>
</trkpt>
<trkpt lat="40.63932333333333" lon="-3.1574083333333336">
<ele>736</ele>
<time>2017-03-01T09:36:32Z</time>
</trkpt>
<trkpt lat="40.63932333333333" lon="-3.1574083333333336">
<ele>736</ele>
<time>2017-03-01T09:36:34Z</time>
</trkpt>
<trkpt lat="40.63932333333333" lon="-3.1574083333333336">
<ele>736</ele>
<time>2017-03-01T09:36:36Z</time>
</trkpt>
<trkpt lat="40.63932333333333" lon="-3.1574083333333336">
<ele>736</ele>
<time>2017-03-01T09:36:38Z</time>
</trkpt>
<trkpt lat="40.63928333333333" lon="-3.1574600000000004">
<ele>737</ele>
<time>2017-03-01T09:36:40Z</time>
</trkpt>
<trkpt lat="40.63927833333333" lon="-3.1574966666666664">
<ele>736</ele>
<time>2017-03-01T09:36:42Z</time>
</trkpt>
<trkpt lat="40.63927666666667" lon="-3.157506666666667">
<ele>736</ele>
<time>2017-03-01T09:36:44Z</time>
</trkpt>
<trkpt lat="40.63927666666667" lon="-3.157506666666667">
<ele>736</ele>
<time>2017-03-01T09:36:46Z</time>
</trkpt>
<trkpt lat="40.63927666666667" lon="-3.157506666666667">
<ele>736</ele>
<time>2017-03-01T09:36:48Z</time>
</trkpt>
<trkpt lat="40.63927666666667" lon="-3.157506666666667">
<ele>736</ele>
<time>2017-03-01T09:36:50Z</time>
</trkpt>
<trkpt lat="40.63927666666667" lon="-3.157506666666667">
<ele>736</ele>
<time>2017-03-01T09:36:52Z</time>
</trkpt>
<trkpt lat="40.63927666666667" lon="-3.157506666666667">
<ele>736</ele>
<time>2017-03-01T09:36:54Z</time>
</trkpt>
<trkpt lat="40.63927666666667" lon="-3.157506666666667">
<ele>736</ele>
<time>2017-03-01T09:36:56Z</time>
</trkpt>
<trkpt lat="40.63927666666667" lon="-3.157506666666667">
<ele>736</ele>
<time>2017-03-01T09:36:58Z</time>
</trkpt>
<trkpt lat="40.63929333333333" lon="-3.1575933333333333">
<ele>737</ele>
<time>2017-03-01T09:37:00Z</time>
</trkpt>
<trkpt lat="40.63930666666667" lon="-3.1575933333333333">
<ele>737</ele>
<time>2017-03-01T09:37:02Z</time>
</trkpt>
<trkpt lat="40.63930666666667" lon="-3.1575933333333333">
<ele>737</ele>
<time>2017-03-01T09:37:04Z</time>
</trkpt>
<trkpt lat="40.639336666666665" lon="-3.157611666666667">
<ele>737</ele>
<time>2017-03-01T09:37:06Z</time>
</trkpt>
<trkpt lat="40.639343333333336" lon="-3.1576150000000003">
<ele>737</ele>
<time>2017-03-01T09:37:08Z</time>
</trkpt>
<trkpt lat="40.639356666666664" lon="-3.157626666666667">
<ele>737</ele>
<time>2017-03-01T09:37:10Z</time>
</trkpt>
<trkpt lat="40.63936666666667" lon="-3.157625">
<ele>737</ele>
<time>2017-03-01T09:37:12Z</time>
</trkpt>
<trkpt lat="40.639379999999996" lon="-3.15763">
<ele>737</ele>
<time>2017-03-01T09:37:14Z</time>
</trkpt>
<trkpt lat="40.639379999999996" lon="-3.15763">
<ele>737</ele>
<time>2017-03-01T09:37:16Z</time>
</trkpt>
<trkpt lat="40.639390000000006" lon="-3.1576833333333334">
<ele>736</ele>
<time>2017-03-01T09:37:18Z</time>
</trkpt>
<trkpt lat="40.639388333333336" lon="-3.1577116666666663">
<ele>735</ele>
<time>2017-03-01T09:37:20Z</time>
</trkpt>
<trkpt lat="40.639390000000006" lon="-3.1577316666666673">
<ele>735</ele>
<time>2017-03-01T09:37:22Z</time>
</trkpt>
<trkpt lat="40.639379999999996" lon="-3.15774">
<ele>734</ele>
<time>2017-03-01T09:37:24Z</time>
</trkpt>
<trkpt lat="40.639379999999996" lon="-3.15774">
<ele>734</ele>
<time>2017-03-01T09:37:26Z</time>
</trkpt>
<trkpt lat="40.639379999999996" lon="-3.15774">
<ele>734</ele>
<time>2017-03-01T09:37:28Z</time>
</trkpt>
<trkpt lat="40.639379999999996" lon="-3.15774">
<ele>734</ele>
<time>2017-03-01T09:37:30Z</time>
</trkpt>
<trkpt lat="40.639379999999996" lon="-3.15774">
<ele>734</ele>
<time>2017-03-01T09:37:32Z</time>
</trkpt>
<trkpt lat="40.639379999999996" lon="-3.15774">
<ele>734</ele>
<time>2017-03-01T09:37:34Z</time>
</trkpt>
<trkpt lat="40.639379999999996" lon="-3.15774">
<ele>734</ele>
<time>2017-03-01T09:37:36Z</time>
</trkpt>
<trkpt lat="40.639379999999996" lon="-3.15774">
<ele>734</ele>
<time>2017-03-01T09:37:38Z</time>
</trkpt>
<trkpt lat="40.639453333333336" lon="-3.157798333333333">
<ele>734</ele>
<time>2017-03-01T09:37:40Z</time>
</trkpt>
<trkpt lat="40.63952333333334" lon="-3.1578366666666664">
<ele>733</ele>
<time>2017-03-01T09:37:42Z</time>
</trkpt>
<trkpt lat="40.63956833333334" lon="-3.1578766666666667">
<ele>732</ele>
<time>2017-03-01T09:37:44Z</time>
</trkpt>
<trkpt lat="40.639604999999996" lon="-3.1578983333333337">
<ele>731</ele>
<time>2017-03-01T09:37:46Z</time>
</trkpt>
<trkpt lat="40.63960833333333" lon="-3.157915">
<ele>731</ele>
<time>2017-03-01T09:37:48Z</time>
</trkpt>
<trkpt lat="40.639601666666664" lon="-3.157925">
<ele>730</ele>
<time>2017-03-01T09:37:50Z</time>
</trkpt>
<trkpt lat="40.639601666666664" lon="-3.157925">
<ele>730</ele>
<time>2017-03-01T09:37:52Z</time>
</trkpt>
<trkpt lat="40.639601666666664" lon="-3.157925">
<ele>730</ele>
<time>2017-03-01T09:37:54Z</time>
</trkpt>
<trkpt lat="40.639601666666664" lon="-3.157925">
<ele>730</ele>
<time>2017-03-01T09:37:56Z</time>
</trkpt>
<trkpt lat="40.639651666666666" lon="-3.157996666666667">
<ele>728</ele>
<time>2017-03-01T09:37:58Z</time>
</trkpt>
<trkpt lat="40.63967" lon="-3.158063333333333">
<ele>727</ele>
<time>2017-03-01T09:38:00Z</time>
</trkpt>
<trkpt lat="40.639720000000004" lon="-3.1580816666666665">
<ele>727</ele>
<time>2017-03-01T09:38:02Z</time>
</trkpt>
<trkpt lat="40.63973333333333" lon="-3.158101666666667">
<ele>727</ele>
<time>2017-03-01T09:38:04Z</time>
</trkpt>
<trkpt lat="40.63976666666667" lon="-3.1580900000000005">
<ele>727</ele>
<time>2017-03-01T09:38:06Z</time>
</trkpt>
<trkpt lat="40.639810000000004" lon="-3.1580833333333334">
<ele>726</ele>
<time>2017-03-01T09:38:08Z</time>
</trkpt>
<trkpt lat="40.63979666666667" lon="-3.1580516666666663">
<ele>726</ele>
<time>2017-03-01T09:38:10Z</time>
</trkpt>
<trkpt lat="40.63979833333334" lon="-3.158043333333333">
<ele>726</ele>
<time>2017-03-01T09:38:12Z</time>
</trkpt>
<trkpt lat="40.639808333333335" lon="-3.1580516666666663">
<ele>727</ele>
<time>2017-03-01T09:38:14Z</time>
</trkpt>
<trkpt lat="40.639829999999996" lon="-3.1580733333333333">
<ele>727</ele>
<time>2017-03-01T09:38:16Z</time>
</trkpt>
<trkpt lat="40.63984000000001" lon="-3.1580733333333333">
<ele>728</ele>
<time>2017-03-01T09:38:18Z</time>
</trkpt>
<trkpt lat="40.63984333333334" lon="-3.15808">
<ele>728</ele>
<time>2017-03-01T09:38:20Z</time>
</trkpt>
<trkpt lat="40.63984333333334" lon="-3.15808">
<ele>728</ele>
<time>2017-03-01T09:38:22Z</time>
</trkpt>
<trkpt lat="40.63984333333334" lon="-3.15808">
<ele>728</ele>
<time>2017-03-01T09:38:24Z</time>
</trkpt>
<trkpt lat="40.639896666666665" lon="-3.15817">
<ele>730</ele>
<time>2017-03-01T09:38:26Z</time>
</trkpt>
<trkpt lat="40.63992" lon="-3.158205">
<ele>730</ele>
<time>2017-03-01T09:38:28Z</time>
</trkpt>
<trkpt lat="40.639921666666666" lon="-3.1582450000000004">
<ele>731</ele>
<time>2017-03-01T09:38:30Z</time>
</trkpt>
<trkpt lat="40.63993833333333" lon="-3.158265">
<ele>731</ele>
<time>2017-03-01T09:38:32Z</time>
</trkpt>
<trkpt lat="40.63993833333333" lon="-3.158265">
<ele>731</ele>
<time>2017-03-01T09:38:34Z</time>
</trkpt>
<trkpt lat="40.639955" lon="-3.158301666666667">
<ele>732</ele>
<time>2017-03-01T09:38:36Z</time>
</trkpt>
<trkpt lat="40.639961666666665" lon="-3.1583183333333333">
<ele>733</ele>
<time>2017-03-01T09:38:38Z</time>
</trkpt>
<trkpt lat="40.63997" lon="-3.158328333333334">
<ele>733</ele>
<time>2017-03-01T09:38:40Z</time>
</trkpt>
<trkpt lat="40.63997" lon="-3.158328333333334">
<ele>733</ele>
<time>2017-03-01T09:38:42Z</time>
</trkpt>
<trkpt lat="40.63997" lon="-3.158328333333334">
<ele>733</ele>
<time>2017-03-01T09:38:44Z</time>
</trkpt>
<trkpt lat="40.63997" lon="-3.158328333333334">
<ele>733</ele>
<time>2017-03-01T09:38:46Z</time>
</trkpt>
<trkpt lat="40.640035" lon="-3.158383333333333">
<ele>735</ele>
<time>2017-03-01T09:38:48Z</time>
</trkpt>
<trkpt lat="40.64005833333333" lon="-3.1584166666666667">
<ele>735</ele>
<time>2017-03-01T09:38:50Z</time>
</trkpt>
<trkpt lat="40.640076666666666" lon="-3.158451666666666">
<ele>736</ele>
<time>2017-03-01T09:38:52Z</time>
</trkpt>
<trkpt lat="40.64010333333333" lon="-3.158465">
<ele>736</ele>
<time>2017-03-01T09:38:54Z</time>
</trkpt>
<trkpt lat="40.64012833333334" lon="-3.1584533333333336">
<ele>737</ele>
<time>2017-03-01T09:38:56Z</time>
</trkpt>
<trkpt lat="40.64015666666667" lon="-3.158428333333333">
<ele>737</ele>
<time>2017-03-01T09:38:58Z</time>
</trkpt>
<trkpt lat="40.64015666666667" lon="-3.158428333333333">
<ele>737</ele>
<time>2017-03-01T09:39:00Z</time>
</trkpt>
<trkpt lat="40.64015666666667" lon="-3.158428333333333">
<ele>737</ele>
<time>2017-03-01T09:39:02Z</time>
</trkpt>
<trkpt lat="40.64015666666667" lon="-3.158428333333333">
<ele>737</ele>
<time>2017-03-01T09:39:04Z</time>
</trkpt>
<trkpt lat="40.64015166666666" lon="-3.1583916666666663">
<ele>740</ele>
<time>2017-03-01T09:39:06Z</time>
</trkpt>
<trkpt lat="40.64012666666667" lon="-3.158383333333333">
<ele>741</ele>
<time>2017-03-01T09:39:08Z</time>
</trkpt>
<trkpt lat="40.6401" lon="-3.15836">
<ele>742</ele>
<time>2017-03-01T09:39:10Z</time>
</trkpt>
<trkpt lat="40.640076666666666" lon="-3.1583366666666666">
<ele>742</ele>
<time>2017-03-01T09:39:12Z</time>
</trkpt>
<trkpt lat="40.64006666666667" lon="-3.158338333333333">
<ele>743</ele>
<time>2017-03-01T09:39:14Z</time>
</trkpt>
<trkpt lat="40.64006333333334" lon="-3.158338333333333">
<ele>743</ele>
<time>2017-03-01T09:39:16Z</time>
</trkpt>
<trkpt lat="40.64006333333334" lon="-3.158338333333333">
<ele>743</ele>
<time>2017-03-01T09:39:18Z</time>
</trkpt>
<trkpt lat="40.64006333333334" lon="-3.158338333333333">
<ele>743</ele>
<time>2017-03-01T09:39:20Z</time>
</trkpt>
<trkpt lat="40.64006333333334" lon="-3.158338333333333">
<ele>743</ele>
<time>2017-03-01T09:39:22Z</time>
</trkpt>
<trkpt lat="40.64000333333333" lon="-3.1583116666666666">
<ele>744</ele>
<time>2017-03-01T09:39:24Z</time>
</trkpt>
<trkpt lat="40.63997" lon="-3.1582999999999997">
<ele>744</ele>
<time>2017-03-01T09:39:26Z</time>
</trkpt>
<trkpt lat="40.639941666666665" lon="-3.1582833333333338">
<ele>744</ele>
<time>2017-03-01T09:39:28Z</time>
</trkpt>
<trkpt lat="40.639895" lon="-3.158256666666667">
<ele>744</ele>
<time>2017-03-01T09:39:30Z</time>
</trkpt>
<trkpt lat="40.63990666666667" lon="-3.1582300000000005">
<ele>742</ele>
<time>2017-03-01T09:39:32Z</time>
</trkpt>
<trkpt lat="40.63988166666666" lon="-3.158215">
<ele>743</ele>
<time>2017-03-01T09:39:34Z</time>
</trkpt>
<trkpt lat="40.639851666666665" lon="-3.158205">
<ele>743</ele>
<time>2017-03-01T09:39:36Z</time>
</trkpt>
<trkpt lat="40.63984333333334" lon="-3.158175">
<ele>743</ele>
<time>2017-03-01T09:39:38Z</time>
</trkpt>
<trkpt lat="40.63982333333333" lon="-3.1581683333333332">
<ele>742</ele>
<time>2017-03-01T09:39:40Z</time>
</trkpt>
<trkpt lat="40.63982" lon="-3.158146666666667">
<ele>741</ele>
<time>2017-03-01T09:39:42Z</time>
</trkpt>
<trkpt lat="40.63982166666666" lon="-3.158166666666667">
<ele>741</ele>
<time>2017-03-01T09:39:44Z</time>
</trkpt>
<trkpt lat="40.639815" lon="-3.1581583333333336">
<ele>741</ele>
<time>2017-03-01T09:39:46Z</time>
</trkpt>
<trkpt lat="40.63982" lon="-3.1581483333333336">
<ele>741</ele>
<time>2017-03-01T09:39:48Z</time>
</trkpt>
<trkpt lat="40.63982" lon="-3.1581483333333336">
<ele>741</ele>
<time>2017-03-01T09:39:50Z</time>
</trkpt>
<trkpt lat="40.63977666666666" lon="-3.1581216666666667">
<ele>740</ele>
<time>2017-03-01T09:39:52Z</time>
</trkpt>
<trkpt lat="40.63977" lon="-3.158071666666667">
<ele>740</ele>
<time>2017-03-01T09:39:54Z</time>
</trkpt>
<trkpt lat="40.63975333333334" lon="-3.1580500000000002">
<ele>741</ele>
<time>2017-03-01T09:39:56Z</time>
</trkpt>
<trkpt lat="40.63973333333333" lon="-3.158043333333333">
<ele>742</ele>
<time>2017-03-01T09:39:58Z</time>
</trkpt>
<trkpt lat="40.63973166666666" lon="-3.1580399999999997">
<ele>742</ele>
<time>2017-03-01T09:40:00Z</time>
</trkpt>
<trkpt lat="40.63973166666666" lon="-3.1580399999999997">
<ele>742</ele>
<time>2017-03-01T09:40:02Z</time>
</trkpt>
<trkpt lat="40.63973166666666" lon="-3.1580399999999997">
<ele>742</ele>
<time>2017-03-01T09:40:04Z</time>
</trkpt>
<trkpt lat="40.63966666666667" lon="-3.1580000000000004">
<ele>744</ele>
<time>2017-03-01T09:40:06Z</time>
</trkpt>
<trkpt lat="40.63964" lon="-3.1579866666666665">
<ele>745</ele>
<time>2017-03-01T09:40:08Z</time>
</trkpt>
<trkpt lat="40.63961833333334" lon="-3.15797">
<ele>745</ele>
<time>2017-03-01T09:40:10Z</time>
</trkpt>
<trkpt lat="40.639601666666664" lon="-3.1579566666666663">
<ele>746</ele>
<time>2017-03-01T09:40:12Z</time>
</trkpt>
<trkpt lat="40.639581666666665" lon="-3.157948333333333">
<ele>746</ele>
<time>2017-03-01T09:40:14Z</time>
</trkpt>
<trkpt lat="40.639581666666665" lon="-3.157948333333333">
<ele>746</ele>
<time>2017-03-01T09:40:16Z</time>
</trkpt>
<trkpt lat="40.639581666666665" lon="-3.157948333333333">
<ele>746</ele>
<time>2017-03-01T09:40:18Z</time>
</trkpt>
<trkpt lat="40.639525000000006" lon="-3.1579133333333336">
<ele>748</ele>
<time>2017-03-01T09:40:20Z</time>
</trkpt>
<trkpt lat="40.63950666666666" lon="-3.157901666666667">
<ele>748</ele>
<time>2017-03-01T09:40:22Z</time>
</trkpt>
<trkpt lat="40.639485" lon="-3.1578816666666665">
<ele>749</ele>
<time>2017-03-01T09:40:24Z</time>
</trkpt>
<trkpt lat="40.63947333333333" lon="-3.1578600000000003">
<ele>750</ele>
<time>2017-03-01T09:40:26Z</time>
</trkpt>
<trkpt lat="40.639465" lon="-3.1578549999999996">
<ele>750</ele>
<time>2017-03-01T09:40:28Z</time>
</trkpt>
<trkpt lat="40.639465" lon="-3.1578549999999996">
<ele>750</ele>
<time>2017-03-01T09:40:30Z</time>
</trkpt>
<trkpt lat="40.639421666666664" lon="-3.1578150000000003">
<ele>751</ele>
<time>2017-03-01T09:40:32Z</time>
</trkpt>
<trkpt lat="40.639395" lon="-3.1578033333333337">
<ele>752</ele>
<time>2017-03-01T09:40:34Z</time>
</trkpt>
<trkpt lat="40.639376666666664" lon="-3.1577866666666665">
<ele>752</ele>
<time>2017-03-01T09:40:36Z</time>
</trkpt>
<trkpt lat="40.639358333333334" lon="-3.15777">
<ele>753</ele>
<time>2017-03-01T09:40:38Z</time>
</trkpt>
<trkpt lat="40.63934666666667" lon="-3.157761666666667">
<ele>754</ele>
<time>2017-03-01T09:40:40Z</time>
</trkpt>
<trkpt lat="40.63933833333333" lon="-3.1577566666666663">
<ele>754</ele>
<time>2017-03-01T09:40:42Z</time>
</trkpt>
<trkpt lat="40.63930166666667" lon="-3.1577499999999996">
<ele>754</ele>
<time>2017-03-01T09:40:44Z</time>
</trkpt>
<trkpt lat="40.63927833333333" lon="-3.157745">
<ele>754</ele>
<time>2017-03-01T09:40:46Z</time>
</trkpt>
<trkpt lat="40.63925833333334" lon="-3.1577416666666664">
<ele>754</ele>
<time>2017-03-01T09:40:48Z</time>
</trkpt>
<trkpt lat="40.63923333333333" lon="-3.15774">
<ele>755</ele>
<time>2017-03-01T09:40:50Z</time>
</trkpt>
<trkpt lat="40.63921833333333" lon="-3.15774">
<ele>755</ele>
<time>2017-03-01T09:40:52Z</time>
</trkpt>
<trkpt lat="40.639201666666665" lon="-3.15777">
<ele>754</ele>
<time>2017-03-01T09:40:54Z</time>
</trkpt>
<trkpt lat="40.639183333333335" lon="-3.157785">
<ele>754</ele>
<time>2017-03-01T09:40:56Z</time>
</trkpt>
<trkpt lat="40.639175" lon="-3.157783333333333">
<ele>755</ele>
<time>2017-03-01T09:40:58Z</time>
</trkpt>
<trkpt lat="40.639175" lon="-3.157783333333333">
<ele>755</ele>
<time>2017-03-01T09:41:00Z</time>
</trkpt>
<trkpt lat="40.639175" lon="-3.157783333333333">
<ele>755</ele>
<time>2017-03-01T09:41:02Z</time>
</trkpt>
<trkpt lat="40.639163333333336" lon="-3.1578233333333334">
<ele>755</ele>
<time>2017-03-01T09:41:04Z</time>
</trkpt>
<trkpt lat="40.63915166666666" lon="-3.1578600000000003">
<ele>755</ele>
<time>2017-03-01T09:41:06Z</time>
</trkpt>
<trkpt lat="40.63915" lon="-3.157878333333333">
<ele>755</ele>
<time>2017-03-01T09:41:08Z</time>
</trkpt>
<trkpt lat="40.639125" lon="-3.1578966666666664">
<ele>755</ele>
<time>2017-03-01T09:41:10Z</time>
</trkpt>
<trkpt lat="40.639105" lon="-3.1578683333333335">
<ele>755</ele>
<time>2017-03-01T09:41:12Z</time>
</trkpt>
<trkpt lat="40.639105" lon="-3.157886666666667">
<ele>754</ele>
<time>2017-03-01T09:41:14Z</time>
</trkpt>
<trkpt lat="40.639105" lon="-3.157901666666667">
<ele>754</ele>
<time>2017-03-01T09:41:16Z</time>
</trkpt>
<trkpt lat="40.639093333333335" lon="-3.1579283333333334">
<ele>753</ele>
<time>2017-03-01T09:41:18Z</time>
</trkpt>
<trkpt lat="40.63905166666667" lon="-3.1579649999999995">
<ele>752</ele>
<time>2017-03-01T09:41:20Z</time>
</trkpt>
<trkpt lat="40.63903333333334" lon="-3.1579949999999997">
<ele>751</ele>
<time>2017-03-01T09:41:22Z</time>
</trkpt>
<trkpt lat="40.639021666666665" lon="-3.158021666666666">
<ele>751</ele>
<time>2017-03-01T09:41:24Z</time>
</trkpt>
<trkpt lat="40.639025" lon="-3.1580366666666664">
<ele>750</ele>
<time>2017-03-01T09:41:26Z</time>
</trkpt>
<trkpt lat="40.639025" lon="-3.1580366666666664">
<ele>750</ele>
<time>2017-03-01T09:41:28Z</time>
</trkpt>
<trkpt lat="40.63904" lon="-3.158033333333334">
<ele>749</ele>
<time>2017-03-01T09:41:30Z</time>
</trkpt>
<trkpt lat="40.63903666666667" lon="-3.15808">
<ele>749</ele>
<time>2017-03-01T09:41:32Z</time>
</trkpt>
<trkpt lat="40.639045" lon="-3.158086666666667">
<ele>749</ele>
<time>2017-03-01T09:41:34Z</time>
</trkpt>
<trkpt lat="40.63905333333333" lon="-3.158086666666667">
<ele>748</ele>
<time>2017-03-01T09:41:36Z</time>
</trkpt>
<trkpt lat="40.63907" lon="-3.1580916666666665">
<ele>747</ele>
<time>2017-03-01T09:41:38Z</time>
</trkpt>
<trkpt lat="40.63907" lon="-3.1580966666666663">
<ele>747</ele>
<time>2017-03-01T09:41:40Z</time>
</trkpt>
<trkpt lat="40.639075000000005" lon="-3.1580966666666663">
<ele>747</ele>
<time>2017-03-01T09:41:42Z</time>
</trkpt>
<trkpt lat="40.639075000000005" lon="-3.1580966666666663">
<ele>747</ele>
<time>2017-03-01T09:41:44Z</time>
</trkpt>
<trkpt lat="40.639075000000005" lon="-3.1580966666666663">
<ele>747</ele>
<time>2017-03-01T09:41:46Z</time>
</trkpt>
<trkpt lat="40.639075000000005" lon="-3.1580966666666663">
<ele>747</ele>
<time>2017-03-01T09:41:48Z</time>
</trkpt>
<trkpt lat="40.639075000000005" lon="-3.1580966666666663">
<ele>747</ele>
<time>2017-03-01T09:41:50Z</time>
</trkpt>
<trkpt lat="40.639075000000005" lon="-3.1580966666666663">
<ele>747</ele>
<time>2017-03-01T09:41:52Z</time>
</trkpt>
<trkpt lat="40.639075000000005" lon="-3.1580966666666663">
<ele>747</ele>
<time>2017-03-01T09:41:54Z</time>
</trkpt>
<trkpt lat="40.639075000000005" lon="-3.1580966666666663">
<ele>747</ele>
<time>2017-03-01T09:41:56Z</time>
</trkpt>
<trkpt lat="40.63914333333333" lon="-3.1581400000000004">
<ele>744</ele>
<time>2017-03-01T09:41:58Z</time>
</trkpt>
<trkpt lat="40.63914166666667" lon="-3.1581633333333334">
<ele>742</ele>
<time>2017-03-01T09:42:00Z</time>
</trkpt>
<trkpt lat="40.63914333333333" lon="-3.158198333333333">
<ele>741</ele>
<time>2017-03-01T09:42:02Z</time>
</trkpt>
<trkpt lat="40.63914333333333" lon="-3.1582166666666667">
<ele>740</ele>
<time>2017-03-01T09:42:04Z</time>
</trkpt>
<trkpt lat="40.63914333333333" lon="-3.1582166666666667">
<ele>740</ele>
<time>2017-03-01T09:42:06Z</time>
</trkpt>
<trkpt lat="40.63918833333333" lon="-3.1582900000000005">
<ele>739</ele>
<time>2017-03-01T09:42:08Z</time>
</trkpt>
<trkpt lat="40.63922" lon="-3.1583183333333333">
<ele>739</ele>
<time>2017-03-01T09:42:10Z</time>
</trkpt>
<trkpt lat="40.639228333333335" lon="-3.1583716666666666">
<ele>738</ele>
<time>2017-03-01T09:42:12Z</time>
</trkpt>
<trkpt lat="40.639255000000006" lon="-3.15837">
<ele>738</ele>
<time>2017-03-01T09:42:14Z</time>
</trkpt>
<trkpt lat="40.639253333333336" lon="-3.15836">
<ele>738</ele>
<time>2017-03-01T09:42:16Z</time>
</trkpt>
<trkpt lat="40.639253333333336" lon="-3.15836">
<ele>738</ele>
<time>2017-03-01T09:42:18Z</time>
</trkpt>
<trkpt lat="40.63926333333333" lon="-3.158331666666667">
<ele>738</ele>
<time>2017-03-01T09:42:20Z</time>
</trkpt>
<trkpt lat="40.639289999999995" lon="-3.158328333333334">
<ele>738</ele>
<time>2017-03-01T09:42:22Z</time>
</trkpt>
<trkpt lat="40.639325" lon="-3.158328333333334">
<ele>738</ele>
<time>2017-03-01T09:42:24Z</time>
</trkpt>
<trkpt lat="40.63934666666667" lon="-3.1583566666666667">
<ele>739</ele>
<time>2017-03-01T09:42:26Z</time>
</trkpt>
<trkpt lat="40.63935333333333" lon="-3.1583583333333336">
<ele>740</ele>
<time>2017-03-01T09:42:28Z</time>
</trkpt>
<trkpt lat="40.639375" lon="-3.158353333333333">
<ele>741</ele>
<time>2017-03-01T09:42:30Z</time>
</trkpt>
<trkpt lat="40.63937333333333" lon="-3.1583666666666668">
<ele>742</ele>
<time>2017-03-01T09:42:32Z</time>
</trkpt>
<trkpt lat="40.63939833333333" lon="-3.158388333333334">
<ele>743</ele>
<time>2017-03-01T09:42:34Z</time>
</trkpt>
<trkpt lat="40.639426666666665" lon="-3.1584383333333337">
<ele>743</ele>
<time>2017-03-01T09:42:36Z</time>
</trkpt>
<trkpt lat="40.63948166666667" lon="-3.158478333333333">
<ele>744</ele>
<time>2017-03-01T09:42:38Z</time>
</trkpt>
<trkpt lat="40.63951" lon="-3.1585183333333333">
<ele>745</ele>
<time>2017-03-01T09:42:40Z</time>
</trkpt>
<trkpt lat="40.63952833333334" lon="-3.1585349999999996">
<ele>747</ele>
<time>2017-03-01T09:42:42Z</time>
</trkpt>
<trkpt lat="40.63953166666667" lon="-3.158565">
<ele>748</ele>
<time>2017-03-01T09:42:44Z</time>
</trkpt>
<trkpt lat="40.63953166666667" lon="-3.15859">
<ele>749</ele>
<time>2017-03-01T09:42:46Z</time>
</trkpt>
<trkpt lat="40.63954833333333" lon="-3.1586083333333335">
<ele>750</ele>
<time>2017-03-01T09:42:48Z</time>
</trkpt>
<trkpt lat="40.639575" lon="-3.1586233333333333">
<ele>751</ele>
<time>2017-03-01T09:42:50Z</time>
</trkpt>
<trkpt lat="40.639595" lon="-3.1586383333333337">
<ele>752</ele>
<time>2017-03-01T09:42:52Z</time>
</trkpt>
<trkpt lat="40.639615000000006" lon="-3.158655">
<ele>753</ele>
<time>2017-03-01T09:42:54Z</time>
</trkpt>
<trkpt lat="40.63962" lon="-3.158671666666667">
<ele>755</ele>
<time>2017-03-01T09:42:56Z</time>
</trkpt>
<trkpt lat="40.63961833333334" lon="-3.1586849999999997">
<ele>755</ele>
<time>2017-03-01T09:42:58Z</time>
</trkpt>
<trkpt lat="40.63961833333334" lon="-3.1586849999999997">
<ele>755</ele>
<time>2017-03-01T09:43:00Z</time>
</trkpt>
<trkpt lat="40.63961833333334" lon="-3.1586849999999997">
<ele>755</ele>
<time>2017-03-01T09:43:02Z</time>
</trkpt>
<trkpt lat="40.63961833333334" lon="-3.1586849999999997">
<ele>755</ele>
<time>2017-03-01T09:43:04Z</time>
</trkpt>
<trkpt lat="40.63966833333333" lon="-3.1587583333333336">
<ele>758</ele>
<time>2017-03-01T09:43:06Z</time>
</trkpt>
<trkpt lat="40.63968666666666" lon="-3.158751666666667">
<ele>758</ele>
<time>2017-03-01T09:43:08Z</time>
</trkpt>
<trkpt lat="40.6397" lon="-3.1587499999999995">
<ele>758</ele>
<time>2017-03-01T09:43:10Z</time>
</trkpt>
<trkpt lat="40.639696666666666" lon="-3.1587633333333334">
<ele>758</ele>
<time>2017-03-01T09:43:12Z</time>
</trkpt>
<trkpt lat="40.639696666666666" lon="-3.1587633333333334">
<ele>758</ele>
<time>2017-03-01T09:43:14Z</time>
</trkpt>
<trkpt lat="40.639696666666666" lon="-3.1587633333333334">
<ele>758</ele>
<time>2017-03-01T09:43:16Z</time>
</trkpt>
<trkpt lat="40.63973166666666" lon="-3.15881">
<ele>757</ele>
<time>2017-03-01T09:43:18Z</time>
</trkpt>
<trkpt lat="40.639739999999996" lon="-3.15882">
<ele>757</ele>
<time>2017-03-01T09:43:20Z</time>
</trkpt>
<trkpt lat="40.63974333333333" lon="-3.15882">
<ele>757</ele>
<time>2017-03-01T09:43:22Z</time>
</trkpt>
<trkpt lat="40.63974333333333" lon="-3.15882">
<ele>757</ele>
<time>2017-03-01T09:43:24Z</time>
</trkpt>
<trkpt lat="40.63975833333333" lon="-3.1588249999999998">
<ele>757</ele>
<time>2017-03-01T09:43:26Z</time>
</trkpt>
<trkpt lat="40.639784999999996" lon="-3.1588316666666665">
<ele>757</ele>
<time>2017-03-01T09:43:28Z</time>
</trkpt>
<trkpt lat="40.63981666666667" lon="-3.1588350000000003">
<ele>758</ele>
<time>2017-03-01T09:43:30Z</time>
</trkpt>
<trkpt lat="40.639865" lon="-3.158815">
<ele>758</ele>
<time>2017-03-01T09:43:32Z</time>
</trkpt>
<trkpt lat="40.639935" lon="-3.1587499999999995">
<ele>757</ele>
<time>2017-03-01T09:43:34Z</time>
</trkpt>
<trkpt lat="40.639961666666665" lon="-3.1587483333333335">
<ele>757</ele>
<time>2017-03-01T09:43:36Z</time>
</trkpt>
<trkpt lat="40.63998" lon="-3.158783333333333">
<ele>757</ele>
<time>2017-03-01T09:43:38Z</time>
</trkpt>
<trkpt lat="40.63998166666667" lon="-3.1587566666666667">
<ele>756</ele>
<time>2017-03-01T09:43:40Z</time>
</trkpt>
<trkpt lat="40.639975" lon="-3.158731666666667">
<ele>757</ele>
<time>2017-03-01T09:43:42Z</time>
</trkpt>
<trkpt lat="40.639943333333335" lon="-3.158715">
<ele>758</ele>
<time>2017-03-01T09:43:44Z</time>
</trkpt>
<trkpt lat="40.639941666666665" lon="-3.1587566666666667">
<ele>757</ele>
<time>2017-03-01T09:43:46Z</time>
</trkpt>
<trkpt lat="40.63992333333333" lon="-3.1587716666666665">
<ele>758</ele>
<time>2017-03-01T09:43:48Z</time>
</trkpt>
<trkpt lat="40.63992333333333" lon="-3.1587716666666665">
<ele>758</ele>
<time>2017-03-01T09:43:50Z</time>
</trkpt>
<trkpt lat="40.63988166666666" lon="-3.1587666666666667">
<ele>758</ele>
<time>2017-03-01T09:43:52Z</time>
</trkpt>
<trkpt lat="40.63986333333333" lon="-3.1587716666666665">
<ele>758</ele>
<time>2017-03-01T09:43:54Z</time>
</trkpt>
<trkpt lat="40.63983666666666" lon="-3.158773333333334">
<ele>758</ele>
<time>2017-03-01T09:43:56Z</time>
</trkpt>
<trkpt lat="40.639775" lon="-3.1587716666666665">
<ele>757</ele>
<time>2017-03-01T09:43:58Z</time>
</trkpt>
<trkpt lat="40.639739999999996" lon="-3.15877">
<ele>757</ele>
<time>2017-03-01T09:44:00Z</time>
</trkpt>
<trkpt lat="40.639715" lon="-3.158768333333333">
<ele>757</ele>
<time>2017-03-01T09:44:02Z</time>
</trkpt>
<trkpt lat="40.63970666666667" lon="-3.1587666666666667">
<ele>757</ele>
<time>2017-03-01T09:44:04Z</time>
</trkpt>
<trkpt lat="40.63970666666667" lon="-3.1587666666666667">
<ele>757</ele>
<time>2017-03-01T09:44:06Z</time>
</trkpt>
<trkpt lat="40.639673333333334" lon="-3.158733333333333">
<ele>757</ele>
<time>2017-03-01T09:44:08Z</time>
</trkpt>
<trkpt lat="40.63965833333334" lon="-3.1587216666666666">
<ele>757</ele>
<time>2017-03-01T09:44:10Z</time>
</trkpt>
<trkpt lat="40.639633333333336" lon="-3.158715">
<ele>757</ele>
<time>2017-03-01T09:44:12Z</time>
</trkpt>
<trkpt lat="40.63960833333333" lon="-3.1587033333333334">
<ele>757</ele>
<time>2017-03-01T09:44:14Z</time>
</trkpt>
<trkpt lat="40.63959166666667" lon="-3.1586900000000004">
<ele>757</ele>
<time>2017-03-01T09:44:16Z</time>
</trkpt>
<trkpt lat="40.63959" lon="-3.1586833333333337">
<ele>756</ele>
<time>2017-03-01T09:44:18Z</time>
</trkpt>
<trkpt lat="40.63959" lon="-3.1586833333333337">
<ele>756</ele>
<time>2017-03-01T09:44:20Z</time>
</trkpt>
<trkpt lat="40.639559999999996" lon="-3.158628333333333">
<ele>756</ele>
<time>2017-03-01T09:44:22Z</time>
</trkpt>
<trkpt lat="40.639535" lon="-3.158606666666666">
<ele>756</ele>
<time>2017-03-01T09:44:24Z</time>
</trkpt>
<trkpt lat="40.63950833333333" lon="-3.1585883333333338">
<ele>756</ele>
<time>2017-03-01T09:44:26Z</time>
</trkpt>
<trkpt lat="40.63948666666667" lon="-3.15856">
<ele>756</ele>
<time>2017-03-01T09:44:28Z</time>
</trkpt>
<trkpt lat="40.639480000000006" lon="-3.158546666666667">
<ele>756</ele>
<time>2017-03-01T09:44:30Z</time>
</trkpt>
<trkpt lat="40.63947666666666" lon="-3.158538333333333">
<ele>756</ele>
<time>2017-03-01T09:44:32Z</time>
</trkpt>
<trkpt lat="40.63947666666666" lon="-3.158538333333333">
<ele>756</ele>
<time>2017-03-01T09:44:34Z</time>
</trkpt>
<trkpt lat="40.6394" lon="-3.158405">
<ele>756</ele>
<time>2017-03-01T09:44:36Z</time>
</trkpt>
<trkpt lat="40.63939666666667" lon="-3.1583866666666665">
<ele>755</ele>
<time>2017-03-01T09:44:38Z</time>
</trkpt>
<trkpt lat="40.63939166666667" lon="-3.1584083333333335">
<ele>755</ele>
<time>2017-03-01T09:44:40Z</time>
</trkpt>
<trkpt lat="40.639345000000006" lon="-3.1583866666666665">
<ele>755</ele>
<time>2017-03-01T09:44:42Z</time>
</trkpt>
<trkpt lat="40.639336666666665" lon="-3.1583850000000004">
<ele>754</ele>
<time>2017-03-01T09:44:44Z</time>
</trkpt>
<trkpt lat="40.63932333333333" lon="-3.1584383333333337">
<ele>765</ele>
<time>2017-03-01T09:44:46Z</time>
</trkpt>
<trkpt lat="40.639336666666665" lon="-3.158443333333333">
<ele>769</ele>
<time>2017-03-01T09:44:48Z</time>
</trkpt>
<trkpt lat="40.639343333333336" lon="-3.1584450000000004">
<ele>774</ele>
<time>2017-03-01T09:44:50Z</time>
</trkpt>
<trkpt lat="40.63931166666667" lon="-3.1584616666666667">
<ele>775</ele>
<time>2017-03-01T09:44:52Z</time>
</trkpt>
<trkpt lat="40.639295" lon="-3.158443333333333">
<ele>777</ele>
<time>2017-03-01T09:44:54Z</time>
</trkpt>
<trkpt lat="40.63927833333333" lon="-3.1584099999999995">
<ele>776</ele>
<time>2017-03-01T09:44:56Z</time>
</trkpt>
<trkpt lat="40.63925833333334" lon="-3.1584016666666668">
<ele>773</ele>
<time>2017-03-01T09:44:58Z</time>
</trkpt>
<trkpt lat="40.639253333333336" lon="-3.1583916666666663">
<ele>773</ele>
<time>2017-03-01T09:45:00Z</time>
</trkpt>
<trkpt lat="40.639253333333336" lon="-3.1583916666666663">
<ele>773</ele>
<time>2017-03-01T09:45:02Z</time>
</trkpt>
<trkpt lat="40.63923166666667" lon="-3.158353333333333">
<ele>772</ele>
<time>2017-03-01T09:45:04Z</time>
</trkpt>
<trkpt lat="40.63920333333333" lon="-3.15833">
<ele>771</ele>
<time>2017-03-01T09:45:06Z</time>
</trkpt>
<trkpt lat="40.63918" lon="-3.158308333333333">
<ele>771</ele>
<time>2017-03-01T09:45:08Z</time>
</trkpt>
<trkpt lat="40.639156666666665" lon="-3.158278333333333">
<ele>771</ele>
<time>2017-03-01T09:45:10Z</time>
</trkpt>
<trkpt lat="40.63914166666667" lon="-3.1582583333333334">
<ele>771</ele>
<time>2017-03-01T09:45:12Z</time>
</trkpt>
<trkpt lat="40.63913" lon="-3.1582516666666662">
<ele>772</ele>
<time>2017-03-01T09:45:14Z</time>
</trkpt>
<trkpt lat="40.63913" lon="-3.1582516666666662">
<ele>772</ele>
<time>2017-03-01T09:45:16Z</time>
</trkpt>
<trkpt lat="40.63910833333333" lon="-3.1582099999999995">
<ele>772</ele>
<time>2017-03-01T09:45:18Z</time>
</trkpt>
<trkpt lat="40.63908166666667" lon="-3.1582000000000003">
<ele>772</ele>
<time>2017-03-01T09:45:20Z</time>
</trkpt>
<trkpt lat="40.63906" lon="-3.1581949999999996">
<ele>772</ele>
<time>2017-03-01T09:45:22Z</time>
</trkpt>
<trkpt lat="40.639055" lon="-3.158188333333334">
<ele>772</ele>
<time>2017-03-01T09:45:24Z</time>
</trkpt>
<trkpt lat="40.63899" lon="-3.158233333333334">
<ele>766</ele>
<time>2017-03-01T09:45:26Z</time>
</trkpt>
<trkpt lat="40.63897" lon="-3.158241666666667">
<ele>762</ele>
<time>2017-03-01T09:45:28Z</time>
</trkpt>
<trkpt lat="40.63897333333333" lon="-3.1582316666666665">
<ele>758</ele>
<time>2017-03-01T09:45:30Z</time>
</trkpt>
<trkpt lat="40.63897333333333" lon="-3.1582316666666665">
<ele>758</ele>
<time>2017-03-01T09:45:32Z</time>
</trkpt>
<trkpt lat="40.63897333333333" lon="-3.1582316666666665">
<ele>758</ele>
<time>2017-03-01T09:45:34Z</time>
</trkpt>
<trkpt lat="40.63897333333333" lon="-3.1582316666666665">
<ele>758</ele>
<time>2017-03-01T09:45:36Z</time>
</trkpt>
<trkpt lat="40.63897333333333" lon="-3.1582316666666665">
<ele>758</ele>
<time>2017-03-01T09:45:38Z</time>
</trkpt>
<trkpt lat="40.63897333333333" lon="-3.1582316666666665">
<ele>758</ele>
<time>2017-03-01T09:45:40Z</time>
</trkpt>
<trkpt lat="40.63897333333333" lon="-3.1582316666666665">
<ele>758</ele>
<time>2017-03-01T09:45:42Z</time>
</trkpt>
<trkpt lat="40.63897333333333" lon="-3.1582316666666665">
<ele>758</ele>
<time>2017-03-01T09:45:44Z</time>
</trkpt>
<trkpt lat="40.63897333333333" lon="-3.1582316666666665">
<ele>758</ele>
<time>2017-03-01T09:45:46Z</time>
</trkpt>
<trkpt lat="40.63897333333333" lon="-3.1582316666666665">
<ele>758</ele>
<time>2017-03-01T09:45:48Z</time>
</trkpt>
<trkpt lat="40.63897333333333" lon="-3.1582316666666665">
<ele>758</ele>
<time>2017-03-01T09:45:50Z</time>
</trkpt>
<trkpt lat="40.63897333333333" lon="-3.1582316666666665">
<ele>758</ele>
<time>2017-03-01T09:45:52Z</time>
</trkpt>
<trkpt lat="40.63897333333333" lon="-3.1582316666666665">
<ele>758</ele>
<time>2017-03-01T09:45:54Z</time>
</trkpt>
<trkpt lat="40.63897333333333" lon="-3.1582316666666665">
<ele>758</ele>
<time>2017-03-01T09:45:56Z</time>
</trkpt>
<trkpt lat="40.63897333333333" lon="-3.1582316666666665">
<ele>758</ele>
<time>2017-03-01T09:45:58Z</time>
</trkpt>
<trkpt lat="40.63897333333333" lon="-3.1582316666666665">
<ele>758</ele>
<time>2017-03-01T09:46:00Z</time>
</trkpt>
<trkpt lat="40.63897333333333" lon="-3.1582316666666665">
<ele>758</ele>
<time>2017-03-01T09:46:02Z</time>
</trkpt>
<trkpt lat="40.63897333333333" lon="-3.1582316666666665">
<ele>758</ele>
<time>2017-03-01T09:46:04Z</time>
</trkpt>
<trkpt lat="40.63897333333333" lon="-3.1582316666666665">
<ele>758</ele>
<time>2017-03-01T09:46:06Z</time>
</trkpt>
<trkpt lat="40.63897333333333" lon="-3.1582316666666665">
<ele>758</ele>
<time>2017-03-01T09:46:08Z</time>
</trkpt>
<trkpt lat="40.63888" lon="-3.1582233333333334">
<ele>713</ele>
<time>2017-03-01T09:46:10Z</time>
</trkpt>
<trkpt lat="40.63886166666667" lon="-3.1582516666666662">
<ele>713</ele>
<time>2017-03-01T09:46:12Z</time>
</trkpt>
<trkpt lat="40.638835" lon="-3.158278333333333">
<ele>713</ele>
<time>2017-03-01T09:46:14Z</time>
</trkpt>
<trkpt lat="40.63880666666667" lon="-3.1582916666666665">
<ele>713</ele>
<time>2017-03-01T09:46:16Z</time>
</trkpt>
<trkpt lat="40.638778333333335" lon="-3.158315">
<ele>714</ele>
<time>2017-03-01T09:46:18Z</time>
</trkpt>
<trkpt lat="40.63877333333333" lon="-3.158361666666667">
<ele>714</ele>
<time>2017-03-01T09:46:20Z</time>
</trkpt>
<trkpt lat="40.638745" lon="-3.1584033333333337">
<ele>714</ele>
<time>2017-03-01T09:46:22Z</time>
</trkpt>
<trkpt lat="40.63873666666667" lon="-3.1584300000000005">
<ele>714</ele>
<time>2017-03-01T09:46:24Z</time>
</trkpt>
<trkpt lat="40.63874" lon="-3.1584549999999996">
<ele>714</ele>
<time>2017-03-01T09:46:26Z</time>
</trkpt>
<trkpt lat="40.638749999999995" lon="-3.1584950000000003">
<ele>714</ele>
<time>2017-03-01T09:46:28Z</time>
</trkpt>
<trkpt lat="40.638745" lon="-3.158531666666667">
<ele>714</ele>
<time>2017-03-01T09:46:30Z</time>
</trkpt>
<trkpt lat="40.638686666666665" lon="-3.158516666666667">
<ele>714</ele>
<time>2017-03-01T09:46:32Z</time>
</trkpt>
<trkpt lat="40.638661666666664" lon="-3.158501666666667">
<ele>714</ele>
<time>2017-03-01T09:46:34Z</time>
</trkpt>
<trkpt lat="40.638661666666664" lon="-3.158501666666667">
<ele>714</ele>
<time>2017-03-01T09:46:36Z</time>
</trkpt>
<trkpt lat="40.638775" lon="-3.158568333333333">
<ele>714</ele>
<time>2017-03-01T09:46:38Z</time>
</trkpt>
<trkpt lat="40.63879166666666" lon="-3.1585933333333336">
<ele>714</ele>
<time>2017-03-01T09:46:40Z</time>
</trkpt>
<trkpt lat="40.63884666666667" lon="-3.1585799999999997">
<ele>707</ele>
<time>2017-03-01T09:46:42Z</time>
</trkpt>
<trkpt lat="40.638798333333334" lon="-3.158538333333333">
<ele>700</ele>
<time>2017-03-01T09:46:44Z</time>
</trkpt>
<trkpt lat="40.638749999999995" lon="-3.1585199999999998">
<ele>695</ele>
<time>2017-03-01T09:46:46Z</time>
</trkpt>
<trkpt lat="40.638706666666664" lon="-3.158551666666667">
<ele>692</ele>
<time>2017-03-01T09:46:48Z</time>
</trkpt>
<trkpt lat="40.63867166666667" lon="-3.1585783333333333">
<ele>691</ele>
<time>2017-03-01T09:46:50Z</time>
</trkpt>
<trkpt lat="40.63866666666667" lon="-3.1585799999999997">
<ele>690</ele>
<time>2017-03-01T09:46:52Z</time>
</trkpt>
<trkpt lat="40.63866666666667" lon="-3.1585799999999997">
<ele>690</ele>
<time>2017-03-01T09:46:54Z</time>
</trkpt>
<trkpt lat="40.63862166666667" lon="-3.1584833333333338">
<ele>687</ele>
<time>2017-03-01T09:46:56Z</time>
</trkpt>
<trkpt lat="40.638625000000005" lon="-3.1584666666666665">
<ele>686</ele>
<time>2017-03-01T09:46:58Z</time>
</trkpt>
<trkpt lat="40.638603333333336" lon="-3.158448333333333">
<ele>685</ele>
<time>2017-03-01T09:47:00Z</time>
</trkpt>
<trkpt lat="40.63857333333333" lon="-3.1584549999999996">
<ele>684</ele>
<time>2017-03-01T09:47:02Z</time>
</trkpt>
<trkpt lat="40.638545" lon="-3.1584633333333327">
<ele>684</ele>
<time>2017-03-01T09:47:04Z</time>
</trkpt>
<trkpt lat="40.63847166666667" lon="-3.158581666666667">
<ele>683</ele>
<time>2017-03-01T09:47:06Z</time>
</trkpt>
<trkpt lat="40.63842833333333" lon="-3.158688333333333">
<ele>684</ele>
<time>2017-03-01T09:47:08Z</time>
</trkpt>
<trkpt lat="40.63842833333333" lon="-3.158688333333333">
<ele>684</ele>
<time>2017-03-01T09:47:10Z</time>
</trkpt>
<trkpt lat="40.63842833333333" lon="-3.158688333333333">
<ele>684</ele>
<time>2017-03-01T09:47:12Z</time>
</trkpt>
<trkpt lat="40.63842833333333" lon="-3.158688333333333">
<ele>684</ele>
<time>2017-03-01T09:47:14Z</time>
</trkpt>
<trkpt lat="40.63842833333333" lon="-3.158688333333333">
<ele>684</ele>
<time>2017-03-01T09:47:16Z</time>
</trkpt>
<trkpt lat="40.63842833333333" lon="-3.158688333333333">
<ele>684</ele>
<time>2017-03-01T09:47:18Z</time>
</trkpt>
<trkpt lat="40.63842833333333" lon="-3.158688333333333">
<ele>684</ele>
<time>2017-03-01T09:47:20Z</time>
</trkpt>
<trkpt lat="40.63842833333333" lon="-3.158688333333333">
<ele>684</ele>
<time>2017-03-01T09:47:22Z</time>
</trkpt>
<trkpt lat="40.63842833333333" lon="-3.158688333333333">
<ele>684</ele>
<time>2017-03-01T09:47:24Z</time>
</trkpt>
<trkpt lat="40.63848666666667" lon="-3.158751666666667">
<ele>685</ele>
<time>2017-03-01T09:47:26Z</time>
</trkpt>
<trkpt lat="40.63850166666667" lon="-3.1587716666666665">
<ele>685</ele>
<time>2017-03-01T09:47:28Z</time>
</trkpt>
<trkpt lat="40.638506666666665" lon="-3.1587783333333332">
<ele>685</ele>
<time>2017-03-01T09:47:30Z</time>
</trkpt>
<trkpt lat="40.638515" lon="-3.158783333333333">
<ele>685</ele>
<time>2017-03-01T09:47:32Z</time>
</trkpt>
<trkpt lat="40.638515" lon="-3.158783333333333">
<ele>685</ele>
<time>2017-03-01T09:47:34Z</time>
</trkpt>
<trkpt lat="40.638515" lon="-3.158783333333333">
<ele>685</ele>
<time>2017-03-01T09:47:36Z</time>
</trkpt>
<trkpt lat="40.638515" lon="-3.158783333333333">
<ele>685</ele>
<time>2017-03-01T09:47:38Z</time>
</trkpt>
<trkpt lat="40.638574999999996" lon="-3.1588016666666667">
<ele>685</ele>
<time>2017-03-01T09:47:40Z</time>
</trkpt>
<trkpt lat="40.638565" lon="-3.1588233333333333">
<ele>685</ele>
<time>2017-03-01T09:47:42Z</time>
</trkpt>
<trkpt lat="40.63856666666666" lon="-3.158828333333333">
<ele>685</ele>
<time>2017-03-01T09:47:44Z</time>
</trkpt>
<trkpt lat="40.63856666666666" lon="-3.158828333333333">
<ele>685</ele>
<time>2017-03-01T09:47:46Z</time>
</trkpt>
<trkpt lat="40.638574999999996" lon="-3.1588383333333336">
<ele>685</ele>
<time>2017-03-01T09:47:48Z</time>
</trkpt>
<trkpt lat="40.638596666666665" lon="-3.1588666666666665">
<ele>685</ele>
<time>2017-03-01T09:47:50Z</time>
</trkpt>
<trkpt lat="40.63860833333333" lon="-3.158871666666667">
<ele>685</ele>
<time>2017-03-01T09:47:52Z</time>
</trkpt>
<trkpt lat="40.638645" lon="-3.158878333333333">
<ele>685</ele>
<time>2017-03-01T09:47:54Z</time>
</trkpt>
<trkpt lat="40.638668333333335" lon="-3.158865">
<ele>685</ele>
<time>2017-03-01T09:47:56Z</time>
</trkpt>
<trkpt lat="40.63869" lon="-3.1588383333333336">
<ele>685</ele>
<time>2017-03-01T09:47:58Z</time>
</trkpt>
<trkpt lat="40.63870166666666" lon="-3.158855">
<ele>685</ele>
<time>2017-03-01T09:48:00Z</time>
</trkpt>
<trkpt lat="40.638733333333334" lon="-3.158855">
<ele>686</ele>
<time>2017-03-01T09:48:02Z</time>
</trkpt>
<trkpt lat="40.638753333333334" lon="-3.1588399999999996">
<ele>686</ele>
<time>2017-03-01T09:48:04Z</time>
</trkpt>
<trkpt lat="40.63880166666667" lon="-3.158828333333333">
<ele>686</ele>
<time>2017-03-01T09:48:06Z</time>
</trkpt>
<trkpt lat="40.63885666666667" lon="-3.158815">
<ele>686</ele>
<time>2017-03-01T09:48:08Z</time>
</trkpt>
<trkpt lat="40.63888333333333" lon="-3.1588166666666666">
<ele>686</ele>
<time>2017-03-01T09:48:10Z</time>
</trkpt>
<trkpt lat="40.638915" lon="-3.158811666666667">
<ele>686</ele>
<time>2017-03-01T09:48:12Z</time>
</trkpt>
<trkpt lat="40.63891666666667" lon="-3.158818333333334">
<ele>687</ele>
<time>2017-03-01T09:48:14Z</time>
</trkpt>
<trkpt lat="40.63891666666667" lon="-3.158811666666667">
<ele>687</ele>
<time>2017-03-01T09:48:16Z</time>
</trkpt>
<trkpt lat="40.63891666666667" lon="-3.158811666666667">
<ele>687</ele>
<time>2017-03-01T09:48:18Z</time>
</trkpt>
<trkpt lat="40.63891666666667" lon="-3.158811666666667">
<ele>687</ele>
<time>2017-03-01T09:48:20Z</time>
</trkpt>
<trkpt lat="40.63899333333333" lon="-3.158833333333333">
<ele>687</ele>
<time>2017-03-01T09:48:22Z</time>
</trkpt>
<trkpt lat="40.63901833333333" lon="-3.1588683333333334">
<ele>687</ele>
<time>2017-03-01T09:48:24Z</time>
</trkpt>
<trkpt lat="40.639045" lon="-3.158888333333333">
<ele>687</ele>
<time>2017-03-01T09:48:26Z</time>
</trkpt>
<trkpt lat="40.63906833333333" lon="-3.1589">
<ele>687</ele>
<time>2017-03-01T09:48:28Z</time>
</trkpt>
<trkpt lat="40.63909833333333" lon="-3.1589400000000003">
<ele>687</ele>
<time>2017-03-01T09:48:30Z</time>
</trkpt>
<trkpt lat="40.63912166666667" lon="-3.158991666666666">
<ele>687</ele>
<time>2017-03-01T09:48:32Z</time>
</trkpt>
<trkpt lat="40.63915166666666" lon="-3.159006666666666">
<ele>687</ele>
<time>2017-03-01T09:48:34Z</time>
</trkpt>
<trkpt lat="40.639178333333334" lon="-3.1590166666666666">
<ele>687</ele>
<time>2017-03-01T09:48:36Z</time>
</trkpt>
<trkpt lat="40.63924333333333" lon="-3.159086666666667">
<ele>687</ele>
<time>2017-03-01T09:48:38Z</time>
</trkpt>
<trkpt lat="40.63928333333333" lon="-3.1591583333333335">
<ele>687</ele>
<time>2017-03-01T09:48:40Z</time>
</trkpt>
<trkpt lat="40.63928333333333" lon="-3.1591583333333335">
<ele>687</ele>
<time>2017-03-01T09:48:42Z</time>
</trkpt>
<trkpt lat="40.63936666666667" lon="-3.1592000000000002">
<ele>687</ele>
<time>2017-03-01T09:48:44Z</time>
</trkpt>
<trkpt lat="40.63938333333333" lon="-3.159233333333333">
<ele>686</ele>
<time>2017-03-01T09:48:46Z</time>
</trkpt>
<trkpt lat="40.639415" lon="-3.159263333333333">
<ele>686</ele>
<time>2017-03-01T09:48:48Z</time>
</trkpt>
<trkpt lat="40.63941333333333" lon="-3.159301666666667">
<ele>686</ele>
<time>2017-03-01T09:48:50Z</time>
</trkpt>
<trkpt lat="40.639421666666664" lon="-3.15927">
<ele>686</ele>
<time>2017-03-01T09:48:52Z</time>
</trkpt>
<trkpt lat="40.639445" lon="-3.1592383333333336">
<ele>687</ele>
<time>2017-03-01T09:48:54Z</time>
</trkpt>
<trkpt lat="40.63941333333333" lon="-3.1592350000000002">
<ele>687</ele>
<time>2017-03-01T09:48:56Z</time>
</trkpt>
<trkpt lat="40.63942333333333" lon="-3.1592016666666667">
<ele>687</ele>
<time>2017-03-01T09:48:58Z</time>
</trkpt>
<trkpt lat="40.63944" lon="-3.1591583333333335">
<ele>688</ele>
<time>2017-03-01T09:49:00Z</time>
</trkpt>
<trkpt lat="40.639408333333336" lon="-3.1591183333333333">
<ele>688</ele>
<time>2017-03-01T09:49:02Z</time>
</trkpt>
<trkpt lat="40.63941666666666" lon="-3.159093333333333">
<ele>688</ele>
<time>2017-03-01T09:49:04Z</time>
</trkpt>
<trkpt lat="40.63946833333333" lon="-3.159051666666666">
<ele>688</ele>
<time>2017-03-01T09:49:06Z</time>
</trkpt>
<trkpt lat="40.639480000000006" lon="-3.159026666666667">
<ele>689</ele>
<time>2017-03-01T09:49:08Z</time>
</trkpt>
<trkpt lat="40.639471666666665" lon="-3.1589850000000004">
<ele>689</ele>
<time>2017-03-01T09:49:10Z</time>
</trkpt>
<trkpt lat="40.63950166666667" lon="-3.158946666666667">
<ele>689</ele>
<time>2017-03-01T09:49:12Z</time>
</trkpt>
<trkpt lat="40.639525000000006" lon="-3.158936666666667">
<ele>689</ele>
<time>2017-03-01T09:49:14Z</time>
</trkpt>
<trkpt lat="40.63954833333333" lon="-3.1589266666666664">
<ele>690</ele>
<time>2017-03-01T09:49:16Z</time>
</trkpt>
<trkpt lat="40.639561666666665" lon="-3.1589116666666666">
<ele>691</ele>
<time>2017-03-01T09:49:18Z</time>
</trkpt>
<trkpt lat="40.63956833333334" lon="-3.158983333333333">
<ele>694</ele>
<time>2017-03-01T09:49:20Z</time>
</trkpt>
<trkpt lat="40.639575" lon="-3.159005">
<ele>695</ele>
<time>2017-03-01T09:49:22Z</time>
</trkpt>
<trkpt lat="40.639601666666664" lon="-3.1589883333333337">
<ele>695</ele>
<time>2017-03-01T09:49:24Z</time>
</trkpt>
<trkpt lat="40.639626666666665" lon="-3.158965">
<ele>695</ele>
<time>2017-03-01T09:49:26Z</time>
</trkpt>
<trkpt lat="40.639655" lon="-3.1589483333333335">
<ele>695</ele>
<time>2017-03-01T09:49:28Z</time>
</trkpt>
<trkpt lat="40.6397" lon="-3.1589199999999997">
<ele>695</ele>
<time>2017-03-01T09:49:30Z</time>
</trkpt>
<trkpt lat="40.639718333333334" lon="-3.158908333333333">
<ele>696</ele>
<time>2017-03-01T09:49:32Z</time>
</trkpt>
<trkpt lat="40.639725" lon="-3.158915">
<ele>696</ele>
<time>2017-03-01T09:49:34Z</time>
</trkpt>
<trkpt lat="40.639765000000004" lon="-3.1589066666666668">
<ele>697</ele>
<time>2017-03-01T09:49:36Z</time>
</trkpt>
<trkpt lat="40.63979833333334" lon="-3.1589">
<ele>697</ele>
<time>2017-03-01T09:49:38Z</time>
</trkpt>
<trkpt lat="40.63981166666667" lon="-3.1588800000000004">
<ele>698</ele>
<time>2017-03-01T09:49:40Z</time>
</trkpt>
<trkpt lat="40.639829999999996" lon="-3.1588600000000002">
<ele>699</ele>
<time>2017-03-01T09:49:42Z</time>
</trkpt>
<trkpt lat="40.63984666666667" lon="-3.1588533333333335">
<ele>700</ele>
<time>2017-03-01T09:49:44Z</time>
</trkpt>
<trkpt lat="40.639858333333336" lon="-3.158818333333334">
<ele>700</ele>
<time>2017-03-01T09:49:46Z</time>
</trkpt>
<trkpt lat="40.639874999999996" lon="-3.158798333333333">
<ele>701</ele>
<time>2017-03-01T09:49:48Z</time>
</trkpt>
<trkpt lat="40.639896666666665" lon="-3.158806666666666">
<ele>702</ele>
<time>2017-03-01T09:49:50Z</time>
</trkpt>
<trkpt lat="40.639918333333334" lon="-3.1588133333333333">
<ele>703</ele>
<time>2017-03-01T09:49:52Z</time>
</trkpt>
<trkpt lat="40.63993833333333" lon="-3.158811666666667">
<ele>705</ele>
<time>2017-03-01T09:49:54Z</time>
</trkpt>
<trkpt lat="40.639959999999995" lon="-3.1587866666666664">
<ele>706</ele>
<time>2017-03-01T09:49:56Z</time>
</trkpt>
<trkpt lat="40.639985" lon="-3.158765">
<ele>707</ele>
<time>2017-03-01T09:49:58Z</time>
</trkpt>
<trkpt lat="40.64001" lon="-3.1587433333333337">
<ele>708</ele>
<time>2017-03-01T09:50:00Z</time>
</trkpt>
<trkpt lat="40.64002333333334" lon="-3.1587049999999994">
<ele>709</ele>
<time>2017-03-01T09:50:02Z</time>
</trkpt>
<trkpt lat="40.640035" lon="-3.158665">
<ele>709</ele>
<time>2017-03-01T09:50:04Z</time>
</trkpt>
<trkpt lat="40.640049999999995" lon="-3.158628333333333">
<ele>710</ele>
<time>2017-03-01T09:50:06Z</time>
</trkpt>
<trkpt lat="40.64007333333333" lon="-3.158606666666666">
<ele>711</ele>
<time>2017-03-01T09:50:08Z</time>
</trkpt>
<trkpt lat="40.640094999999995" lon="-3.1585799999999997">
<ele>712</ele>
<time>2017-03-01T09:50:10Z</time>
</trkpt>
<trkpt lat="40.640105" lon="-3.158561666666666">
<ele>713</ele>
<time>2017-03-01T09:50:12Z</time>
</trkpt>
<trkpt lat="40.64011" lon="-3.1585566666666667">
<ele>713</ele>
<time>2017-03-01T09:50:14Z</time>
</trkpt>
<trkpt lat="40.64011" lon="-3.1585566666666667">
<ele>713</ele>
<time>2017-03-01T09:50:16Z</time>
</trkpt>
<trkpt lat="40.64013166666667" lon="-3.1585133333333335">
<ele>714</ele>
<time>2017-03-01T09:50:18Z</time>
</trkpt>
<trkpt lat="40.64013333333333" lon="-3.1584616666666667">
<ele>715</ele>
<time>2017-03-01T09:50:20Z</time>
</trkpt>
<trkpt lat="40.640135" lon="-3.1584016666666668">
<ele>715</ele>
<time>2017-03-01T09:50:22Z</time>
</trkpt>
<trkpt lat="40.640139999999995" lon="-3.1583949999999996">
<ele>716</ele>
<time>2017-03-01T09:50:24Z</time>
</trkpt>
<trkpt lat="40.640145" lon="-3.1583949999999996">
<ele>716</ele>
<time>2017-03-01T09:50:26Z</time>
</trkpt>
<trkpt lat="40.640145" lon="-3.1583949999999996">
<ele>716</ele>
<time>2017-03-01T09:50:28Z</time>
</trkpt>
<trkpt lat="40.640195" lon="-3.1583649999999994">
<ele>717</ele>
<time>2017-03-01T09:50:30Z</time>
</trkpt>
<trkpt lat="40.64022166666667" lon="-3.1583433333333337">
<ele>717</ele>
<time>2017-03-01T09:50:32Z</time>
</trkpt>
<trkpt lat="40.640245" lon="-3.158316666666667">
<ele>717</ele>
<time>2017-03-01T09:50:34Z</time>
</trkpt>
<trkpt lat="40.64026666666667" lon="-3.158301666666667">
<ele>718</ele>
<time>2017-03-01T09:50:36Z</time>
</trkpt>
<trkpt lat="40.64028833333334" lon="-3.1582983333333337">
<ele>718</ele>
<time>2017-03-01T09:50:38Z</time>
</trkpt>
<trkpt lat="40.64031333333333" lon="-3.158293333333333">
<ele>719</ele>
<time>2017-03-01T09:50:40Z</time>
</trkpt>
<trkpt lat="40.64034166666667" lon="-3.1583199999999994">
<ele>719</ele>
<time>2017-03-01T09:50:42Z</time>
</trkpt>
<trkpt lat="40.64035833333333" lon="-3.1583116666666666">
<ele>719</ele>
<time>2017-03-01T09:50:44Z</time>
</trkpt>
<trkpt lat="40.64037166666667" lon="-3.1583049999999995">
<ele>720</ele>
<time>2017-03-01T09:50:46Z</time>
</trkpt>
<trkpt lat="40.640385" lon="-3.1582666666666666">
<ele>720</ele>
<time>2017-03-01T09:50:48Z</time>
</trkpt>
<trkpt lat="40.640393333333336" lon="-3.15822">
<ele>721</ele>
<time>2017-03-01T09:50:50Z</time>
</trkpt>
<trkpt lat="40.64041833333333" lon="-3.1582033333333337">
<ele>721</ele>
<time>2017-03-01T09:50:52Z</time>
</trkpt>
<trkpt lat="40.640436666666666" lon="-3.1581683333333332">
<ele>721</ele>
<time>2017-03-01T09:50:54Z</time>
</trkpt>
<trkpt lat="40.640456666666665" lon="-3.158138333333333">
<ele>721</ele>
<time>2017-03-01T09:50:56Z</time>
</trkpt>
<trkpt lat="40.64047166666667" lon="-3.1581133333333336">
<ele>722</ele>
<time>2017-03-01T09:50:58Z</time>
</trkpt>
<trkpt lat="40.640475" lon="-3.1581033333333335">
<ele>722</ele>
<time>2017-03-01T09:51:00Z</time>
</trkpt>
<trkpt lat="40.64047666666667" lon="-3.158101666666667">
<ele>722</ele>
<time>2017-03-01T09:51:02Z</time>
</trkpt>
<trkpt lat="40.640485" lon="-3.1580583333333334">
<ele>723</ele>
<time>2017-03-01T09:51:04Z</time>
</trkpt>
<trkpt lat="40.640480000000004" lon="-3.1580000000000004">
<ele>723</ele>
<time>2017-03-01T09:51:06Z</time>
</trkpt>
<trkpt lat="40.64047" lon="-3.157966666666667">
<ele>724</ele>
<time>2017-03-01T09:51:08Z</time>
</trkpt>
<trkpt lat="40.640475" lon="-3.1579366666666666">
<ele>724</ele>
<time>2017-03-01T09:51:10Z</time>
</trkpt>
<trkpt lat="40.640485" lon="-3.157923333333333">
<ele>724</ele>
<time>2017-03-01T09:51:12Z</time>
</trkpt>
<trkpt lat="40.64049166666667" lon="-3.157915">
<ele>724</ele>
<time>2017-03-01T09:51:14Z</time>
</trkpt>
<trkpt lat="40.64050833333333" lon="-3.1578900000000005">
<ele>725</ele>
<time>2017-03-01T09:51:16Z</time>
</trkpt>
<trkpt lat="40.64051666666667" lon="-3.157861666666667">
<ele>725</ele>
<time>2017-03-01T09:51:18Z</time>
</trkpt>
<trkpt lat="40.64052166666667" lon="-3.157835">
<ele>726</ele>
<time>2017-03-01T09:51:20Z</time>
</trkpt>
<trkpt lat="40.64053333333333" lon="-3.1578150000000003">
<ele>726</ele>
<time>2017-03-01T09:51:22Z</time>
</trkpt>
<trkpt lat="40.64054833333333" lon="-3.15779">
<ele>726</ele>
<time>2017-03-01T09:51:24Z</time>
</trkpt>
<trkpt lat="40.64054833333333" lon="-3.157751666666667">
<ele>726</ele>
<time>2017-03-01T09:51:26Z</time>
</trkpt>
<trkpt lat="40.64054833333333" lon="-3.157746666666667">
<ele>726</ele>
<time>2017-03-01T09:51:28Z</time>
</trkpt>
<trkpt lat="40.64054833333333" lon="-3.157746666666667">
<ele>726</ele>
<time>2017-03-01T09:51:30Z</time>
</trkpt>
<trkpt lat="40.64054833333333" lon="-3.157746666666667">
<ele>726</ele>
<time>2017-03-01T09:51:32Z</time>
</trkpt>
<trkpt lat="40.64054833333333" lon="-3.157746666666667">
<ele>726</ele>
<time>2017-03-01T09:51:34Z</time>
</trkpt>
<trkpt lat="40.64054833333333" lon="-3.157746666666667">
<ele>726</ele>
<time>2017-03-01T09:51:36Z</time>
</trkpt>
<trkpt lat="" lon="">
<ele></ele>
<time>2017-03-01TZ</time>
</trkpt>
</trkseg>
</trk>
<wpt lat="" lon="">
	<name></name>
	<desc></desc>
	<cmt></cmt>
	<photoid></photoid>
	<type></type>
</wpt>
</gpx>
